Time,TemperatureF,DewpointF,PressureIn,WindDirection,WindDirectionDegrees,WindSpeedMPH,WindSpeedGustMPH,Humidity,HourlyPrecipIn,Conditions,Clouds,dailyrainin,SoftwareType,DateUTC
2013-01-18 00:01:00,59.2,51.3,29.44,SSE,158,17.3,17.3,75,0.00,CLR,,0.00,WeatherDisplay:10.37,2013-01-17 22:01:00,
2013-01-18 00:02:00,59.2,50.9,29.44,SSW,202,17.3,17.3,74,0.00,CLR,,0.00,WeatherDisplay:10.37,2013-01-17 22:02:00,
2013-01-18 00:03:00,59.2,50.9,29.44,SSW,202,32.2,32.2,74,0.00,CLR,,0.00,WeatherDisplay:10.37,2013-01-17 22:03:00,
2013-01-18 00:06:00,59.2,50.9,29.44,SSE,158,24.2,24.2,74,0.00,CLR,,0.00,WeatherDisplay:10.37,2013-01-17 22:06:00,
2013-01-18 00:07:00,59.2,51.3,29.44,SSE,158,24.2,24.2,75,0.00,CLR,,0.00,WeatherDisplay:10.37,2013-01-17 22:07:00,
2013-01-18 00:08:00,59.2,51.3,29.44,South,180,24.2,24.2,75,0.00,CLR,,0.00,WeatherDisplay:10.37,2013-01-17 22:08:00,
2013-01-18 00:11:00,59.2,51.3,29.44,SSE,158,22.3,22.3,75,0.00,CLR,,0.00,WeatherDisplay:10.37,2013-01-17 22:11:00,
2013-01-18 00:12:00,59.2,51.3,29.44,ESE,112,27.5,27.5,75,0.00,CLR,,0.00,WeatherDisplay:10.37,2013-01-17 22:12:00,
2013-01-18 00:13:00,59.2,51.3,29.44,SSW,202,27.6,27.6,75,0.00,CLR,,0.00,WeatherDisplay:10.37,2013-01-17 22:13:00,
2013-01-18 00:16:00,59.2,51.3,29.44,South,180,23.0,23.0,75,0.00,CLR,,0.00,WeatherDisplay:10.37,2013-01-17 22:16:00,
2013-01-18 00:17:00,59.2,51.3,29.44,SSE,158,20.7,20.7,75,0.00,CLR,,0.00,WeatherDisplay:10.37,2013-01-17 22:17:00,
2013-01-18 00:18:00,59.2,51.3,29.44,SSE,158,18.4,18.4,75,0.00,CLR,,0.00,WeatherDisplay:10.37,2013-01-17 22:18:00,
2013-01-18 00:21:00,59.2,50.9,29.44,SSE,158,25.3,25.3,74,0.00,CLR,,0.00,WeatherDisplay:10.37,2013-01-17 22:21:00,
2013-01-18 00:23:00,59.2,50.5,29.44,SSW,202,25.3,25.3,73,0.00,CLR,,0.00,WeatherDisplay:10.37,2013-01-17 22:23:00,
2013-01-18 00:26:00,59.2,50.5,29.44,SSE,158,17.3,17.3,73,0.00,CLR,,0.00,WeatherDisplay:10.37,2013-01-17 22:26:00,
2013-01-18 00:27:00,59.2,50.9,29.44,SSE,158,17.3,17.3,74,0.00,CLR,,0.00,WeatherDisplay:10.37,2013-01-17 22:27:00,
2013-01-18 00:28:00,59.2,51.3,29.44,SSE,158,16.1,16.1,75,0.00,CLR,,0.00,WeatherDisplay:10.37,2013-01-17 22:28:00,
2013-01-18 00:31:00,59.2,52.3,29.44,SE,135,24.2,24.2,78,0.00,CLR,,0.00,WeatherDisplay:10.37,2013-01-17 22:31:00,
2013-01-18 00:32:00,59.2,52.3,29.44,SSE,158,19.6,19.6,78,0.00,CLR,,0.00,WeatherDisplay:10.37,2013-01-17 22:32:00,
2013-01-18 00:33:00,59.2,52.3,29.44,SSE,158,14.7,14.7,78,0.00,CLR,,0.00,WeatherDisplay:10.37,2013-01-17 22:33:00,
2013-01-18 00:34:00,59.2,52.0,29.44,SSE,158,13.2,13.2,77,0.00,CLR,,0.00,WeatherDisplay:10.37,2013-01-17 22:34:00,
2013-01-18 00:36:00,59.0,51.8,29.44,SSW,202,21.3,21.3,77,0.00,CLR,,0.00,WeatherDisplay:10.37,2013-01-17 22:36:00,
2013-01-18 00:37:00,59.0,51.8,29.44,SSE,158,29.9,29.9,77,0.00,CLR,,0.00,WeatherDisplay:10.37,2013-01-17 22:37:00,
2013-01-18 00:38:00,58.8,50.9,29.44,SSE,158,29.9,29.9,75,0.00,CLR,,0.00,WeatherDisplay:10.37,2013-01-17 22:38:00,
2013-01-18 00:39:00,58.8,50.9,29.44,SSE,158,24.2,24.2,75,0.00,CLR,,0.00,WeatherDisplay:10.37,2013-01-17 22:39:00,
2013-01-18 00:42:00,58.5,50.6,29.44,SSE,158,19.2,19.2,75,0.00,CLR,,0.00,WeatherDisplay:10.37,2013-01-17 22:42:00,
2013-01-18 00:43:00,58.5,51.3,29.44,SSW,202,27.6,27.6,77,0.00,CLR,,0.00,WeatherDisplay:10.37,2013-01-17 22:43:00,
2013-01-18 00:44:00,58.5,51.3,29.44,South,180,12.7,12.7,77,0.00,CLR,,0.00,WeatherDisplay:10.37,2013-01-17 22:44:00,
2013-01-18 00:47:00,58.3,51.4,29.44,SSW,202,31.1,31.1,78,0.00,CLR,,0.00,WeatherDisplay:10.37,2013-01-17 22:47:00,
2013-01-18 00:48:00,58.5,51.6,29.44,South,180,28.8,28.8,78,0.00,CLR,,0.00,WeatherDisplay:10.37,2013-01-17 22:48:00,
2013-01-18 00:49:00,58.5,52.0,29.44,South,180,27.6,27.6,79,0.00,CLR,,0.00,WeatherDisplay:10.37,2013-01-17 22:49:00,
2013-01-18 00:52:00,58.5,53.0,29.44,South,180,23.0,23.0,82,0.00,CLR,,0.00,WeatherDisplay:10.37,2013-01-17 22:52:00,
2013-01-18 00:53:00,58.5,53.0,29.44,SSE,158,12.7,12.7,82,0.00,CLR,,0.00,WeatherDisplay:10.37,2013-01-17 22:53:00,
2013-01-18 00:54:00,58.5,53.3,29.44,SSW,202,24.2,24.2,83,0.00,CLR,,0.00,WeatherDisplay:10.37,2013-01-17 22:54:00,
2013-01-18 00:57:00,58.3,52.5,29.44,SSE,158,18.4,18.4,81,0.00,CLR,,0.00,WeatherDisplay:10.37,2013-01-17 22:57:00,
2013-01-18 00:58:00,58.3,52.5,29.44,SSW,202,13.8,13.8,81,0.00,CLR,,0.00,WeatherDisplay:10.37,2013-01-17 22:58:00,
2013-01-18 00:59:00,58.1,52.0,29.44,South,180,13.8,13.8,80,0.00,CLR,,0.00,WeatherDisplay:10.37,2013-01-17 22:59:00,
2013-01-18 01:02:00,58.1,52.0,29.44,South,180,27.6,27.6,80,0.00,CLR,,0.00,WeatherDisplay:10.37,2013-01-17 23:02:00,
2013-01-18 01:03:00,57.9,51.4,29.44,SSW,202,26.3,26.3,79,0.00,CLR,,0.00,WeatherDisplay:10.37,2013-01-17 23:03:00,
2013-01-18 01:04:00,57.9,52.1,29.44,SSW,202,27.3,27.3,81,0.00,CLR,,0.00,WeatherDisplay:10.37,2013-01-17 23:04:00,
2013-01-18 01:07:00,57.7,52.3,29.44,SW,225,15.0,15.0,82,0.00,CLR,,0.00,WeatherDisplay:10.37,2013-01-17 23:07:00,
2013-01-18 01:08:00,57.7,52.6,29.44,SSE,158,15.0,15.0,83,0.00,CLR,,0.00,WeatherDisplay:10.37,2013-01-17 23:08:00,
2013-01-18 01:09:00,57.7,52.6,29.44,SSW,202,11.5,11.5,83,0.00,CLR,,0.00,WeatherDisplay:10.37,2013-01-17 23:09:00,
2013-01-18 01:12:00,57.6,52.4,29.44,SSE,158,23.0,23.0,83,0.00,CLR,,0.00,WeatherDisplay:10.37,2013-01-17 23:12:00,
2013-01-18 01:13:00,57.6,52.4,29.44,SSE,158,18.4,18.4,83,0.00,CLR,,0.00,WeatherDisplay:10.37,2013-01-17 23:13:00,
2013-01-18 01:14:00,57.6,52.4,29.44,SSE,158,30.6,30.6,83,0.00,CLR,,0.00,WeatherDisplay:10.37,2013-01-17 23:14:00,
2013-01-18 01:15:00,57.4,52.6,29.44,SSE,158,31.1,31.1,84,0.00,CLR,,0.00,WeatherDisplay:10.37,2013-01-17 23:15:00,
2013-01-18 01:17:00,57.2,52.1,29.41,SSE,158,24.2,24.2,83,0.00,CLR,,0.00,WeatherDisplay:10.37,2013-01-17 23:17:00,
2013-01-18 01:18:00,57.2,51.8,29.41,SSE,158,21.3,21.3,82,0.00,CLR,,0.00,WeatherDisplay:10.37,2013-01-17 23:18:00,
2013-01-18 01:19:00,57.2,51.8,29.41,SSE,158,21.3,21.3,82,0.00,CLR,,0.00,WeatherDisplay:10.37,2013-01-17 23:19:00,
2013-01-18 01:20:00,57.2,51.8,29.41,SSW,202,24.2,24.2,82,0.00,CLR,,0.00,WeatherDisplay:10.37,2013-01-17 23:20:00,
2013-01-18 01:22:00,57.2,52.1,29.41,SW,225,15.0,15.0,83,0.00,CLR,,0.00,WeatherDisplay:10.37,2013-01-17 23:22:00,
2013-01-18 01:24:00,57.2,52.4,29.41,SSE,158,21.9,21.9,84,0.00,CLR,,0.00,WeatherDisplay:10.37,2013-01-17 23:24:00,
2013-01-18 01:25:00,57.2,52.7,29.41,SSW,202,17.3,17.3,85,0.00,CLR,,0.00,WeatherDisplay:10.37,2013-01-17 23:25:00,
2013-01-18 01:27:00,57.2,53.0,29.41,SSE,158,25.6,25.6,86,0.00,CLR,,0.00,WeatherDisplay:10.37,2013-01-17 23:27:00,
2013-01-18 01:29:00,57.4,53.2,29.41,South,180,25.3,25.3,86,0.00,CLR,,0.00,WeatherDisplay:10.37,2013-01-17 23:29:00,
2013-01-18 01:30:00,57.4,53.2,29.41,SSE,158,17.3,17.3,86,0.00,CLR,,0.00,WeatherDisplay:10.37,2013-01-17 23:30:00,
2013-01-18 01:32:00,57.4,53.2,29.38,SSE,158,20.4,20.4,86,0.00,CLR,,0.00,WeatherDisplay:10.37,2013-01-17 23:32:00,
2013-01-18 01:34:00,57.4,52.9,29.38,SSE,158,20.7,20.7,85,0.00,CLR,,0.00,WeatherDisplay:10.37,2013-01-17 23:34:00,
2013-01-18 01:35:00,57.4,52.9,29.38,SSW,202,19.6,19.6,85,0.00,CLR,,0.00,WeatherDisplay:10.37,2013-01-17 23:35:00,
2013-01-18 01:37:00,57.6,53.4,29.38,SSE,158,24.2,24.2,86,0.00,CLR,,0.00,WeatherDisplay:10.37,2013-01-17 23:37:00,
2013-01-18 01:39:00,57.6,53.7,29.38,South,180,27.5,27.5,87,0.00,CLR,,0.00,WeatherDisplay:10.37,2013-01-17 23:39:00,
2013-01-18 01:40:00,57.7,54.5,29.38,South,180,29.9,29.9,89,0.00,CLR,,0.00,WeatherDisplay:10.37,2013-01-17 23:40:00,
2013-01-18 01:43:00,57.6,54.0,29.38,SSE,158,33.4,33.4,88,0.00,CLR,,0.00,WeatherDisplay:10.37,2013-01-17 23:43:00,
2013-01-18 01:44:00,57.6,53.7,29.38,South,180,21.9,21.9,87,0.00,CLR,,0.00,WeatherDisplay:10.37,2013-01-17 23:44:00,
2013-01-18 01:45:00,57.6,53.4,29.38,SSE,158,28.9,28.9,86,0.00,CLR,,0.00,WeatherDisplay:10.37,2013-01-17 23:45:00,
2013-01-18 01:48:00,57.4,53.2,29.38,SSE,158,23.0,23.0,86,0.00,CLR,,0.00,WeatherDisplay:10.37,2013-01-17 23:48:00,
2013-01-18 01:49:00,57.4,53.2,29.38,SSE,158,16.1,16.1,86,0.00,CLR,,0.00,WeatherDisplay:10.37,2013-01-17 23:49:00,
2013-01-18 01:50:00,57.4,53.2,29.38,SSW,202,24.2,24.2,86,0.00,CLR,,0.00,WeatherDisplay:10.37,2013-01-17 23:50:00,
2013-01-18 01:53:00,57.6,53.4,29.38,South,180,17.3,17.3,86,0.00,CLR,,0.00,WeatherDisplay:10.37,2013-01-17 23:53:00,
2013-01-18 01:54:00,57.6,54.0,29.38,SSE,158,18.4,18.4,88,0.00,CLR,,0.00,WeatherDisplay:10.37,2013-01-17 23:54:00,
2013-01-18 01:55:00,57.6,54.0,29.38,WSW,248,15.0,15.0,88,0.00,CLR,,0.00,WeatherDisplay:10.37,2013-01-17 23:55:00,
2013-01-18 01:58:00,57.4,53.9,29.38,SSE,158,21.9,21.9,88,0.00,CLR,,0.00,WeatherDisplay:10.37,2013-01-17 23:58:00,
2013-01-18 01:59:00,57.4,53.5,29.38,SSE,158,26.5,26.5,87,0.00,CLR,,0.00,WeatherDisplay:10.37,2013-01-17 23:59:00,
2013-01-18 02:00:00,57.4,53.9,29.38,SSE,158,26.5,26.5,88,0.00,CLR,,0.00,WeatherDisplay:10.37,2013-01-18 00:00:00,
2013-01-18 02:01:00,57.6,54.0,29.38,South,180,24.2,24.2,88,0.00,CLR,,0.00,WeatherDisplay:10.37,2013-01-18 00:01:00,
2013-01-18 02:03:00,57.6,54.0,29.38,SE,135,29.9,29.9,88,0.00,CLR,,0.00,WeatherDisplay:10.37,2013-01-18 00:03:00,
2013-01-18 02:04:00,57.6,54.0,29.38,SSW,202,33.5,33.5,88,0.00,CLR,,0.00,WeatherDisplay:10.37,2013-01-18 00:04:00,
2013-01-18 02:05:00,57.6,53.4,29.38,SSW,202,33.4,33.4,86,0.00,CLR,,0.00,WeatherDisplay:10.37,2013-01-18 00:05:00,
2013-01-18 02:06:00,57.6,53.4,29.38,SSE,158,33.4,33.4,86,0.00,CLR,,0.00,WeatherDisplay:10.37,2013-01-18 00:06:00,
2013-01-18 02:08:00,57.6,53.4,29.38,SSW,202,15.0,15.0,86,0.00,CLR,,0.00,WeatherDisplay:10.37,2013-01-18 00:08:00,
2013-01-18 02:09:00,57.6,53.4,29.38,SSE,158,18.1,18.1,86,0.00,CLR,,0.00,WeatherDisplay:10.37,2013-01-18 00:09:00,
2013-01-18 02:10:00,57.6,53.4,29.38,SSE,158,21.3,21.3,86,0.00,CLR,,0.00,WeatherDisplay:10.37,2013-01-18 00:10:00,
2013-01-18 02:11:00,57.6,53.4,29.38,SSE,158,18.4,18.4,86,0.00,CLR,,0.00,WeatherDisplay:10.37,2013-01-18 00:11:00,
2013-01-18 02:13:00,57.7,53.6,29.38,SSE,158,24.2,24.2,86,0.00,CLR,,0.00,WeatherDisplay:10.37,2013-01-18 00:13:00,
2013-01-18 02:14:00,57.7,53.3,29.38,South,180,24.2,24.2,85,0.00,CLR,,0.00,WeatherDisplay:10.37,2013-01-18 00:14:00,
2013-01-18 02:15:00,57.7,52.9,29.38,South,180,20.7,20.7,84,0.00,CLR,,0.00,WeatherDisplay:10.37,2013-01-18 00:15:00,
2013-01-18 02:16:00,57.7,52.9,29.38,SSW,202,15.0,15.0,84,0.00,CLR,,0.00,WeatherDisplay:10.37,2013-01-18 00:16:00,
2013-01-18 02:18:00,57.7,53.3,29.38,SW,225,15.0,15.0,85,0.00,CLR,,0.00,WeatherDisplay:10.37,2013-01-18 00:18:00,
2013-01-18 02:19:00,57.7,53.3,29.38,SSW,202,15.0,15.0,85,0.00,CLR,,0.00,WeatherDisplay:10.37,2013-01-18 00:19:00,
2013-01-18 02:20:00,57.7,52.9,29.38,SSE,158,27.7,27.7,84,0.00,CLR,,0.00,WeatherDisplay:10.37,2013-01-18 00:20:00,
2013-01-18 02:21:00,57.7,52.9,29.38,SSE,158,27.6,27.6,84,0.00,CLR,,0.00,WeatherDisplay:10.37,2013-01-18 00:21:00,
2013-01-18 02:23:00,57.7,52.6,29.38,South,180,28.8,28.8,83,0.00,CLR,,0.00,WeatherDisplay:10.37,2013-01-18 00:23:00,
2013-01-18 02:25:00,57.7,52.6,29.38,South,180,20.7,20.7,83,0.00,CLR,,0.00,WeatherDisplay:10.37,2013-01-18 00:25:00,
2013-01-18 02:26:00,57.7,52.6,29.38,SSW,202,12.7,12.7,83,0.00,CLR,,0.00,WeatherDisplay:10.37,2013-01-18 00:26:00,
2013-01-18 02:28:00,57.9,52.1,29.38,SSE,158,27.9,27.9,81,0.00,CLR,,0.00,WeatherDisplay:10.37,2013-01-18 00:28:00,
2013-01-18 02:30:00,57.7,51.6,29.38,South,180,27.3,27.3,80,0.00,CLR,,0.00,WeatherDisplay:10.37,2013-01-18 00:30:00,
2013-01-18 02:31:00,57.7,51.6,29.38,SSE,158,27.6,27.6,80,0.00,CLR,,0.00,WeatherDisplay:10.37,2013-01-18 00:31:00,
2013-01-18 02:33:00,57.7,51.3,29.38,SSE,158,18.4,18.4,79,0.00,CLR,,0.00,WeatherDisplay:10.37,2013-01-18 00:33:00,
2013-01-18 02:35:00,57.9,51.4,29.38,SSE,158,19.0,19.0,79,0.00,CLR,,0.00,WeatherDisplay:10.37,2013-01-18 00:35:00,
2013-01-18 02:36:00,57.9,51.1,29.38,SSW,202,15.0,15.0,78,0.00,CLR,,0.00,WeatherDisplay:10.37,2013-01-18 00:36:00,
2013-01-18 02:39:00,57.9,51.4,29.38,SE,135,18.4,18.4,79,0.00,CLR,,0.00,WeatherDisplay:10.37,2013-01-18 00:39:00,
2013-01-18 02:41:00,57.7,51.3,29.38,SSW,202,25.3,25.3,79,0.00,CLR,,0.00,WeatherDisplay:10.37,2013-01-18 00:41:00,
2013-01-18 02:44:00,57.7,51.3,29.38,SSE,158,21.9,21.9,79,0.00,CLR,,0.00,WeatherDisplay:10.37,2013-01-18 00:44:00,
2013-01-18 02:46:00,57.7,51.6,29.38,SSW,202,11.5,11.5,80,0.00,CLR,,0.00,WeatherDisplay:10.37,2013-01-18 00:46:00,
2013-01-18 02:49:00,57.7,51.6,29.38,SSW,202,17.3,17.3,80,0.00,CLR,,0.00,WeatherDisplay:10.37,2013-01-18 00:49:00,
2013-01-18 02:51:00,57.7,51.6,29.38,SSW,202,11.4,11.4,80,0.00,CLR,,0.00,WeatherDisplay:10.37,2013-01-18 00:51:00,
2013-01-18 02:54:00,57.7,51.6,29.38,SSE,158,17.3,17.3,80,0.00,CLR,,0.00,WeatherDisplay:10.37,2013-01-18 00:54:00,
2013-01-18 02:56:00,57.7,51.9,29.38,SSE,158,15.0,15.0,81,0.00,CLR,,0.00,WeatherDisplay:10.37,2013-01-18 00:56:00,
2013-01-18 02:59:00,57.7,52.3,29.38,South,180,12.7,12.7,82,0.00,CLR,,0.00,WeatherDisplay:10.37,2013-01-18 00:59:00,
2013-01-18 03:01:00,57.7,52.3,29.38,SSE,158,11.5,11.5,82,0.00,CLR,,0.00,WeatherDisplay:10.37,2013-01-18 01:01:00,
2013-01-18 03:04:00,57.7,52.3,29.38,SSW,202,30.4,30.4,82,0.00,CLR,,0.00,WeatherDisplay:10.37,2013-01-18 01:04:00,
2013-01-18 03:06:00,57.7,51.9,29.38,SSW,202,23.0,23.0,81,0.00,CLR,,0.00,WeatherDisplay:10.37,2013-01-18 01:06:00,
2013-01-18 03:07:00,57.7,51.9,29.38,SW,225,23.0,23.0,81,0.00,CLR,,0.00,WeatherDisplay:10.37,2013-01-18 01:07:00,
2013-01-18 03:09:00,57.7,52.3,29.38,SSE,158,24.2,24.2,82,0.00,CLR,,0.00,WeatherDisplay:10.37,2013-01-18 01:09:00,
2013-01-18 03:11:00,57.7,52.3,29.38,SSE,158,18.7,18.7,82,0.00,CLR,,0.00,WeatherDisplay:10.37,2013-01-18 01:11:00,
2013-01-18 03:12:00,57.7,52.3,29.38,SSE,158,18.7,18.7,82,0.00,CLR,,0.00,WeatherDisplay:10.37,2013-01-18 01:12:00,
2013-01-18 03:14:00,57.7,52.6,29.38,South,180,13.2,13.2,83,0.00,CLR,,0.00,WeatherDisplay:10.37,2013-01-18 01:14:00,
2013-01-18 03:17:00,57.9,53.1,29.38,SE,135,15.0,15.0,84,0.00,CLR,,0.00,WeatherDisplay:10.37,2013-01-18 01:17:00,
2013-01-18 03:19:00,57.9,53.1,29.38,SSW,202,23.0,23.0,84,0.00,CLR,,0.00,WeatherDisplay:10.37,2013-01-18 01:19:00,
2013-01-18 03:22:00,57.9,53.1,29.38,SSE,158,16.1,16.1,84,0.00,CLR,,0.00,WeatherDisplay:10.37,2013-01-18 01:22:00,
2013-01-18 03:23:00,57.7,53.3,29.38,SSE,158,9.2,9.2,85,0.00,CLR,,0.00,WeatherDisplay:10.37,2013-01-18 01:23:00,
2013-01-18 03:24:00,57.7,53.3,29.38,SSE,158,20.7,20.7,85,0.00,CLR,,0.00,WeatherDisplay:10.37,2013-01-18 01:24:00,
2013-01-18 03:27:00,57.7,53.3,29.38,SSW,202,13.0,13.0,85,0.00,CLR,,0.00,WeatherDisplay:10.37,2013-01-18 01:27:00,
2013-01-18 03:28:00,57.7,52.9,29.38,SSE,158,36.8,36.8,84,0.00,CLR,,0.00,WeatherDisplay:10.37,2013-01-18 01:28:00,
2013-01-18 03:29:00,57.7,52.9,29.38,SSW,202,36.8,36.8,84,0.00,CLR,,0.00,WeatherDisplay:10.37,2013-01-18 01:29:00,
2013-01-18 03:32:00,57.7,52.9,29.38,SSW,202,29.9,29.9,84,0.00,CLR,,0.00,WeatherDisplay:10.37,2013-01-18 01:32:00,
2013-01-18 03:34:00,57.7,52.9,29.38,South,180,13.0,13.0,84,0.00,CLR,,0.00,WeatherDisplay:10.37,2013-01-18 01:34:00,
2013-01-18 03:37:00,57.7,52.9,29.38,SSE,158,12.7,12.7,84,0.00,CLR,,0.00,WeatherDisplay:10.37,2013-01-18 01:37:00,
2013-01-18 03:38:00,57.7,52.9,29.38,SSE,158,13.8,13.8,84,0.00,CLR,,0.00,WeatherDisplay:10.37,2013-01-18 01:38:00,
2013-01-18 03:39:00,57.7,52.9,29.38,SSE,158,27.6,27.6,84,0.00,CLR,,0.00,WeatherDisplay:10.37,2013-01-18 01:39:00,
2013-01-18 03:43:00,57.7,52.9,29.38,SSE,158,21.9,21.9,84,0.00,CLR,,0.00,WeatherDisplay:10.37,2013-01-18 01:43:00,
2013-01-18 03:44:00,57.7,52.9,29.38,SSE,158,24.2,24.2,84,0.00,CLR,,0.00,WeatherDisplay:10.37,2013-01-18 01:44:00,
2013-01-18 03:48:00,57.6,53.1,29.38,SSE,158,18.4,18.4,85,0.00,CLR,,0.00,WeatherDisplay:10.37,2013-01-18 01:48:00,
2013-01-18 03:49:00,57.6,53.1,29.38,SSE,158,16.3,16.3,85,0.00,CLR,,0.00,WeatherDisplay:10.37,2013-01-18 01:49:00,
2013-01-18 03:53:00,57.6,53.1,29.38,SSE,158,23.5,23.5,85,0.00,CLR,,0.00,WeatherDisplay:10.37,2013-01-18 01:53:00,
2013-01-18 03:54:00,57.6,52.1,29.38,SSE,158,26.8,26.8,82,0.00,CLR,,0.00,WeatherDisplay:10.37,2013-01-18 01:54:00,
2013-01-18 03:58:00,57.7,51.9,29.38,SSW,202,24.2,24.2,81,0.00,CLR,,0.00,WeatherDisplay:10.37,2013-01-18 01:58:00,
2013-01-18 03:59:00,57.7,51.9,29.38,SSE,158,24.2,24.2,81,0.00,CLR,,0.00,WeatherDisplay:10.37,2013-01-18 01:59:00,
2013-01-18 04:03:00,57.6,52.1,29.35,SSE,158,17.3,17.3,82,0.00,CLR,,0.00,WeatherDisplay:10.37,2013-01-18 02:03:00,
2013-01-18 04:04:00,57.7,52.3,29.35,SSW,202,23.0,23.0,82,0.00,CLR,,0.00,WeatherDisplay:10.37,2013-01-18 02:04:00,
2013-01-18 04:05:00,57.6,52.1,29.35,SSE,158,23.0,23.0,82,0.00,CLR,,0.00,WeatherDisplay:10.37,2013-01-18 02:05:00,
2013-01-18 04:08:00,57.6,52.4,29.35,SSE,158,16.1,16.1,83,0.00,CLR,,0.00,WeatherDisplay:10.37,2013-01-18 02:08:00,
2013-01-18 04:09:00,57.6,52.4,29.35,South,180,16.1,16.1,83,0.00,CLR,,0.00,WeatherDisplay:10.37,2013-01-18 02:09:00,
2013-01-18 04:10:00,57.6,52.8,29.35,SSW,202,15.0,15.0,84,0.00,CLR,,0.00,WeatherDisplay:10.37,2013-01-18 02:10:00,
2013-01-18 04:13:00,57.7,52.9,29.35,South,180,24.2,24.2,84,0.00,CLR,,0.00,WeatherDisplay:10.37,2013-01-18 02:13:00,
2013-01-18 04:14:00,57.6,52.8,29.35,SSE,158,10.4,10.4,84,0.00,CLR,,0.00,WeatherDisplay:10.37,2013-01-18 02:14:00,
2013-01-18 04:15:00,57.6,52.8,29.35,South,180,10.7,10.7,84,0.00,CLR,,0.00,WeatherDisplay:10.37,2013-01-18 02:15:00,
2013-01-18 04:19:00,57.7,52.9,29.35,SSE,158,16.1,16.1,84,0.00,CLR,,0.00,WeatherDisplay:10.37,2013-01-18 02:19:00,
2013-01-18 04:20:00,57.7,52.9,29.35,South,180,10.4,10.4,84,0.00,CLR,,0.00,WeatherDisplay:10.37,2013-01-18 02:20:00,
2013-01-18 04:24:00,57.9,53.1,29.35,SSW,202,26.8,26.8,84,0.00,CLR,,0.00,WeatherDisplay:10.37,2013-01-18 02:24:00,
2013-01-18 04:25:00,57.9,52.8,29.35,SSE,168,9.0,27.0,83,0.00,CLR,,0.00,WeatherDisplay:10.37,2013-01-18 02:25:00,
2013-01-18 04:26:00,57.9,52.8,29.35,SE,135,26.5,26.5,83,0.00,CLR,,0.00,WeatherDisplay:10.37,2013-01-18 02:26:00,
2013-01-18 04:29:00,57.9,52.8,29.35,SSE,158,23.0,23.0,83,0.00,CLR,,0.00,WeatherDisplay:10.37,2013-01-18 02:29:00,
2013-01-18 04:30:00,57.9,52.8,29.35,SSE,158,23.0,23.0,83,0.00,CLR,,0.00,WeatherDisplay:10.37,2013-01-18 02:30:00,
2013-01-18 04:31:00,57.9,52.8,29.35,SSE,158,18.4,18.4,83,0.00,CLR,,0.00,WeatherDisplay:10.37,2013-01-18 02:31:00,
2013-01-18 04:34:00,58.1,53.0,29.35,SSW,202,25.3,25.3,83,0.00,CLR,,0.00,WeatherDisplay:10.37,2013-01-18 02:34:00,
2013-01-18 04:35:00,58.1,53.0,29.35,SSE,158,25.3,25.3,83,0.00,CLR,,0.00,WeatherDisplay:10.37,2013-01-18 02:35:00,
2013-01-18 04:36:00,58.1,53.0,29.35,SSE,158,23.0,23.0,83,0.00,CLR,,0.00,WeatherDisplay:10.37,2013-01-18 02:36:00,
2013-01-18 04:39:00,58.1,53.0,29.35,SSE,158,18.4,18.4,83,0.00,CLR,,0.00,WeatherDisplay:10.37,2013-01-18 02:39:00,
2013-01-18 04:40:00,58.1,53.0,29.35,South,170,10.0,23.0,83,0.00,CLR,,0.00,WeatherDisplay:10.37,2013-01-18 02:40:00,
2013-01-18 04:41:00,58.1,53.0,29.35,SSE,158,19.6,19.6,83,0.00,CLR,,0.00,WeatherDisplay:10.37,2013-01-18 02:41:00,
2013-01-18 04:44:00,58.5,53.0,29.35,SSE,158,26.5,26.5,82,0.00,CLR,,0.00,WeatherDisplay:10.37,2013-01-18 02:44:00,
2013-01-18 04:45:00,58.5,53.0,29.35,SSE,158,24.2,24.2,82,0.00,CLR,,0.00,WeatherDisplay:10.37,2013-01-18 02:45:00,
2013-01-18 04:46:00,58.5,53.0,29.35,SSE,158,25.3,25.3,82,0.00,CLR,,0.00,WeatherDisplay:10.37,2013-01-18 02:46:00,
2013-01-18 04:49:00,58.6,52.1,29.32,South,180,21.9,21.9,79,0.00,CLR,,0.00,WeatherDisplay:10.37,2013-01-18 02:49:00,
2013-01-18 04:50:00,58.6,52.1,29.32,SSE,158,18.4,18.4,79,0.00,CLR,,0.00,WeatherDisplay:10.37,2013-01-18 02:50:00,
2013-01-18 04:51:00,58.8,52.3,29.32,SSW,202,27.6,27.6,79,0.00,CLR,,0.00,WeatherDisplay:10.37,2013-01-18 02:51:00,
2013-01-18 04:54:00,58.8,52.3,29.32,SE,135,20.7,20.7,79,0.00,CLR,,0.00,WeatherDisplay:10.37,2013-01-18 02:54:00,
2013-01-18 04:55:00,58.8,52.3,29.32,SSE,158,26.5,26.5,79,0.00,CLR,,0.00,WeatherDisplay:10.37,2013-01-18 02:55:00,
2013-01-18 04:56:00,58.8,52.3,29.32,SSE,158,26.5,26.5,79,0.00,CLR,,0.00,WeatherDisplay:10.37,2013-01-18 02:56:00,
2013-01-18 04:59:00,58.8,53.0,29.32,SSW,202,12.7,12.7,81,0.00,CLR,,0.00,WeatherDisplay:10.37,2013-01-18 02:59:00,
2013-01-18 05:00:00,58.8,53.3,29.32,SSE,158,12.7,12.7,82,0.00,CLR,,0.00,WeatherDisplay:10.37,2013-01-18 03:00:00,
2013-01-18 05:02:00,58.8,53.0,29.32,SSW,202,12.7,12.7,81,0.00,CLR,,0.00,WeatherDisplay:10.37,2013-01-18 03:02:00,
2013-01-18 05:04:00,58.8,52.0,29.32,SSE,158,20.7,20.7,78,0.00,CLR,,0.00,WeatherDisplay:10.37,2013-01-18 03:04:00,
2013-01-18 05:05:00,58.8,51.6,29.32,SW,225,23.0,23.0,77,0.00,CLR,,0.00,WeatherDisplay:10.37,2013-01-18 03:05:00,
2013-01-18 05:07:00,58.8,51.6,29.32,SSE,158,13.8,13.8,77,0.00,CLR,,0.00,WeatherDisplay:10.37,2013-01-18 03:07:00,
2013-01-18 05:09:00,58.8,51.6,29.32,SSE,158,13.8,13.8,77,0.00,CLR,,0.00,WeatherDisplay:10.37,2013-01-18 03:09:00,
2013-01-18 05:10:00,58.8,51.6,29.32,SSE,158,19.2,19.2,77,0.00,CLR,,0.00,WeatherDisplay:10.37,2013-01-18 03:10:00,
2013-01-18 05:12:00,58.8,51.3,29.32,SSW,202,23.0,23.0,76,0.00,CLR,,0.00,WeatherDisplay:10.37,2013-01-18 03:12:00,
2013-01-18 05:14:00,58.8,50.9,29.32,SSE,158,12.8,12.8,75,0.00,CLR,,0.00,WeatherDisplay:10.37,2013-01-18 03:14:00,
2013-01-18 05:15:00,58.8,50.9,29.32,SSE,158,20.7,20.7,75,0.00,CLR,,0.00,WeatherDisplay:10.37,2013-01-18 03:15:00,
2013-01-18 05:17:00,59.0,51.1,29.32,SSE,158,24.2,24.2,75,0.00,CLR,,0.00,WeatherDisplay:10.37,2013-01-18 03:17:00,
2013-01-18 05:19:00,59.0,50.4,29.32,SSE,158,23.5,23.5,73,0.00,CLR,,0.00,WeatherDisplay:10.37,2013-01-18 03:19:00,
2013-01-18 05:20:00,59.0,49.6,29.32,SSE,158,25.3,25.3,71,0.00,CLR,,0.00,WeatherDisplay:10.37,2013-01-18 03:20:00,
2013-01-18 05:21:00,59.0,49.6,29.32,SSE,158,23.0,23.0,71,0.00,CLR,,0.00,WeatherDisplay:10.37,2013-01-18 03:21:00,
2013-01-18 05:22:00,59.0,50.0,29.32,SW,225,29.9,29.9,72,0.00,CLR,,0.00,WeatherDisplay:10.37,2013-01-18 03:22:00,
2013-01-18 05:25:00,58.6,51.1,29.32,SSW,202,28.8,28.8,76,0.00,CLR,,0.00,WeatherDisplay:10.37,2013-01-18 03:25:00,
2013-01-18 05:26:00,58.3,51.4,29.32,SSW,202,24.2,24.2,78,0.00,CLR,,0.00,WeatherDisplay:10.37,2013-01-18 03:26:00,
2013-01-18 05:28:00,58.3,51.4,29.32,South,180,16.1,16.1,78,0.00,CLR,,0.00,WeatherDisplay:10.37,2013-01-18 03:28:00,
2013-01-18 05:30:00,58.1,51.9,29.32,South,183,13.0,26.0,80,0.00,CLR,,0.00,WeatherDisplay:10.37,2013-01-18 03:30:00,
2013-01-18 05:32:00,57.7,52.3,29.29,SSW,202,19.6,19.6,82,0.00,CLR,,0.00,WeatherDisplay:10.37,2013-01-18 03:32:00,
2013-01-18 05:33:00,57.7,52.3,29.29,South,180,21.9,21.9,82,0.00,CLR,,0.00,WeatherDisplay:10.37,2013-01-18 03:33:00,
2013-01-18 05:35:00,57.6,52.4,29.29,SSW,202,18.4,18.4,83,0.00,CLR,,0.00,WeatherDisplay:10.37,2013-01-18 03:35:00,
2013-01-18 05:37:00,57.4,52.6,29.29,SSW,202,12.3,12.3,84,0.00,CLR,,0.00,WeatherDisplay:10.37,2013-01-18 03:37:00,
2013-01-18 05:38:00,57.4,52.6,29.29,SSE,158,24.2,24.2,84,0.00,CLR,,0.00,WeatherDisplay:10.37,2013-01-18 03:38:00,
2013-01-18 05:40:00,57.2,52.7,29.29,SSE,158,31.1,31.1,85,0.00,CLR,,0.00,WeatherDisplay:10.37,2013-01-18 03:40:00,
2013-01-18 05:42:00,57.2,52.7,29.29,SSE,158,12.7,12.7,85,0.00,CLR,,0.00,WeatherDisplay:10.37,2013-01-18 03:42:00,
2013-01-18 05:43:00,57.2,52.7,29.29,SSE,158,13.8,13.8,85,0.00,CLR,,0.00,WeatherDisplay:10.37,2013-01-18 03:43:00,
2013-01-18 05:45:00,57.0,52.6,29.29,SSE,158,18.4,18.4,85,0.00,CLR,,0.00,WeatherDisplay:10.37,2013-01-18 03:45:00,
2013-01-18 05:46:00,57.0,52.6,29.29,SSE,158,18.4,18.4,85,0.00,CLR,,0.00,WeatherDisplay:10.37,2013-01-18 03:46:00,
2013-01-18 05:47:00,57.0,52.9,29.29,South,180,14.5,14.5,86,0.00,CLR,,0.00,WeatherDisplay:10.37,2013-01-18 03:47:00,
2013-01-18 05:48:00,57.0,52.9,29.29,SSE,158,15.0,15.0,86,0.00,CLR,,0.00,WeatherDisplay:10.37,2013-01-18 03:48:00,
2013-01-18 05:50:00,57.0,53.2,29.29,South,180,21.9,21.9,87,0.00,CLR,,0.00,WeatherDisplay:10.37,2013-01-18 03:50:00,
2013-01-18 05:51:00,56.8,53.0,29.29,SSW,202,24.2,24.2,87,0.00,CLR,,0.00,WeatherDisplay:10.37,2013-01-18 03:51:00,
2013-01-18 05:52:00,56.8,53.0,29.29,SSE,158,24.2,24.2,87,0.00,CLR,,0.00,WeatherDisplay:10.37,2013-01-18 03:52:00,
2013-01-18 05:53:00,56.8,53.3,29.29,SSW,202,15.0,15.0,88,0.00,CLR,,0.00,WeatherDisplay:10.37,2013-01-18 03:53:00,
2013-01-18 05:55:00,56.8,53.3,29.29,SSE,158,29.4,29.4,88,0.00,CLR,,0.00,WeatherDisplay:10.37,2013-01-18 03:55:00,
2013-01-18 05:56:00,56.8,53.3,29.29,SE,135,29.9,29.9,88,0.00,CLR,,0.00,WeatherDisplay:10.37,2013-01-18 03:56:00,
2013-01-18 05:57:00,57.0,53.5,29.29,SSW,202,18.4,18.4,88,0.00,CLR,,0.00,WeatherDisplay:10.37,2013-01-18 03:57:00,
2013-01-18 05:58:00,57.0,53.2,29.29,SE,135,18.4,18.4,87,0.00,CLR,,0.00,WeatherDisplay:10.37,2013-01-18 03:58:00,
2013-01-18 06:00:00,57.0,53.2,29.29,SE,135,19.6,19.6,87,0.00,CLR,,0.00,WeatherDisplay:10.37,2013-01-18 04:00:00,
2013-01-18 06:01:00,57.0,52.9,29.29,SSE,158,19.6,19.6,86,0.00,CLR,,0.00,WeatherDisplay:10.37,2013-01-18 04:01:00,
2013-01-18 06:03:00,57.0,52.6,29.32,SSW,202,16.1,16.1,85,0.00,CLR,,0.00,WeatherDisplay:10.37,2013-01-18 04:03:00,
2013-01-18 06:05:00,57.0,52.6,29.32,SSE,158,17.3,17.3,85,0.00,CLR,,0.00,WeatherDisplay:10.37,2013-01-18 04:05:00,
2013-01-18 06:06:00,57.0,52.6,29.32,SSE,158,24.2,24.2,85,0.00,CLR,,0.00,WeatherDisplay:10.37,2013-01-18 04:06:00,
2013-01-18 06:08:00,57.0,50.9,29.32,SE,135,27.6,27.6,80,0.00,CLR,,0.00,WeatherDisplay:10.37,2013-01-18 04:08:00,
2013-01-18 06:10:00,57.0,50.6,29.32,SSE,158,12.7,12.7,79,0.00,CLR,,0.00,WeatherDisplay:10.37,2013-01-18 04:10:00,
2013-01-18 06:11:00,57.0,50.6,29.32,SSE,158,24.4,24.4,79,0.00,CLR,,0.00,WeatherDisplay:10.37,2013-01-18 04:11:00,
2013-01-18 06:13:00,57.0,50.2,29.32,SSE,158,24.2,24.2,78,0.00,CLR,,0.00,WeatherDisplay:10.37,2013-01-18 04:13:00,
2013-01-18 06:14:00,57.0,49.9,29.32,SSE,158,14.0,14.0,77,0.00,CLR,,0.00,WeatherDisplay:10.37,2013-01-18 04:14:00,
2013-01-18 06:15:00,57.0,47.3,29.32,SSW,202,23.0,23.0,70,0.00,CLR,,0.00,WeatherDisplay:10.37,2013-01-18 04:15:00,
2013-01-18 06:16:00,57.0,47.3,29.32,SSE,158,20.7,20.7,70,0.00,CLR,,0.00,WeatherDisplay:10.37,2013-01-18 04:16:00,
2013-01-18 06:18:00,57.0,46.6,29.29,SSW,202,12.8,12.8,68,0.00,CLR,,0.00,WeatherDisplay:10.37,2013-01-18 04:18:00,
2013-01-18 06:19:00,57.0,46.6,29.29,SSE,158,10.4,10.4,68,0.00,CLR,,0.00,WeatherDisplay:10.37,2013-01-18 04:19:00,
2013-01-18 06:20:00,57.0,46.6,29.29,WNW,292,23.0,23.0,68,0.00,CLR,,0.00,WeatherDisplay:10.37,2013-01-18 04:20:00,
2013-01-18 06:21:00,57.0,46.6,29.29,SSE,158,13.8,13.8,68,0.00,CLR,,0.00,WeatherDisplay:10.37,2013-01-18 04:21:00,
2013-01-18 06:23:00,57.0,46.2,29.29,SSE,158,19.6,19.6,67,0.00,CLR,,0.00,WeatherDisplay:10.37,2013-01-18 04:23:00,
2013-01-18 06:25:00,57.0,45.4,29.29,South,180,25.3,25.3,65,0.00,CLR,,0.00,WeatherDisplay:10.37,2013-01-18 04:25:00,
2013-01-18 06:26:00,57.2,45.5,29.29,SSW,202,16.6,16.6,65,0.00,CLR,,0.00,WeatherDisplay:10.37,2013-01-18 04:26:00,
2013-01-18 06:28:00,57.2,46.3,29.29,SSW,202,15.0,15.0,67,0.00,CLR,,0.00,WeatherDisplay:10.37,2013-01-18 04:28:00,
2013-01-18 06:30:00,57.2,46.7,29.29,ESE,112,12.7,12.7,68,0.00,CLR,,0.00,WeatherDisplay:10.37,2013-01-18 04:30:00,
2013-01-18 06:31:00,57.2,47.5,29.29,SSE,158,12.8,12.8,70,0.00,CLR,,0.00,WeatherDisplay:10.37,2013-01-18 04:31:00,
2013-01-18 06:33:00,57.0,47.7,29.32,South,180,26.6,26.6,71,0.00,CLR,,0.00,WeatherDisplay:10.37,2013-01-18 04:33:00,
2013-01-18 06:35:00,57.0,48.4,29.32,SSE,158,26.5,26.5,73,0.00,CLR,,0.00,WeatherDisplay:10.37,2013-01-18 04:35:00,
2013-01-18 06:36:00,57.0,48.4,29.32,SSE,158,26.5,26.5,73,0.00,CLR,,0.00,WeatherDisplay:10.37,2013-01-18 04:36:00,
2013-01-18 06:39:00,57.0,49.2,29.32,SSW,202,17.3,17.3,75,0.00,CLR,,0.00,WeatherDisplay:10.37,2013-01-18 04:39:00,
2013-01-18 06:40:00,57.0,49.2,29.32,SSW,202,19.6,19.6,75,0.00,CLR,,0.00,WeatherDisplay:10.37,2013-01-18 04:40:00,
2013-01-18 06:41:00,57.0,49.2,29.32,SSW,202,19.6,19.6,75,0.00,CLR,,0.00,WeatherDisplay:10.37,2013-01-18 04:41:00,
2013-01-18 06:44:00,57.0,48.8,29.32,SSE,158,12.5,12.5,74,0.00,CLR,,0.00,WeatherDisplay:10.37,2013-01-18 04:44:00,
2013-01-18 06:45:00,57.0,48.4,29.32,South,180,12.7,12.7,73,0.00,CLR,,0.00,WeatherDisplay:10.37,2013-01-18 04:45:00,
2013-01-18 06:46:00,57.0,48.4,29.32,SSE,158,9.2,9.2,73,0.00,CLR,,0.00,WeatherDisplay:10.37,2013-01-18 04:46:00,
2013-01-18 06:47:00,57.0,48.4,29.32,SSW,202,13.8,13.8,73,0.00,CLR,,0.00,WeatherDisplay:10.37,2013-01-18 04:47:00,
2013-01-18 06:49:00,57.0,48.1,29.32,SSE,158,10.7,10.7,72,0.00,CLR,,0.00,WeatherDisplay:10.37,2013-01-18 04:49:00,
2013-01-18 06:50:00,57.0,48.1,29.32,SSW,202,10.4,10.4,72,0.00,CLR,,0.00,WeatherDisplay:10.37,2013-01-18 04:50:00,
2013-01-18 06:51:00,57.0,48.1,29.32,SW,225,9.0,9.0,72,0.00,CLR,,0.00,WeatherDisplay:10.37,2013-01-18 04:51:00,
2013-01-18 06:52:00,57.0,48.1,29.32,SE,135,15.0,15.0,72,0.00,CLR,,0.00,WeatherDisplay:10.37,2013-01-18 04:52:00,
2013-01-18 06:54:00,57.0,48.1,29.32,SSE,158,19.6,19.6,72,0.00,CLR,,0.00,WeatherDisplay:10.37,2013-01-18 04:54:00,
2013-01-18 06:55:00,57.0,48.1,29.32,SSW,202,13.8,13.8,72,0.00,CLR,,0.00,WeatherDisplay:10.37,2013-01-18 04:55:00,
2013-01-18 06:57:00,57.0,48.1,29.32,SE,135,15.0,15.0,72,0.00,CLR,,0.00,WeatherDisplay:10.37,2013-01-18 04:57:00,
2013-01-18 06:59:00,57.2,47.9,29.32,SSE,158,24.6,24.6,71,0.00,CLR,,0.00,WeatherDisplay:10.37,2013-01-18 04:59:00,
2013-01-18 07:00:00,57.2,47.5,29.32,SSW,202,15.0,15.0,70,0.00,CLR,,0.00,WeatherDisplay:10.37,2013-01-18 05:00:00,
2013-01-18 07:02:00,57.2,47.9,29.32,SSW,202,14.5,14.5,71,0.00,CLR,,0.00,WeatherDisplay:10.37,2013-01-18 05:02:00,
2013-01-18 07:03:00,57.2,47.9,29.32,SSW,202,13.8,13.8,71,0.00,CLR,,0.00,WeatherDisplay:10.37,2013-01-18 05:03:00,
2013-01-18 07:05:00,57.2,47.9,29.32,ESE,112,12.7,12.7,71,0.00,CLR,,0.00,WeatherDisplay:10.37,2013-01-18 05:05:00,
2013-01-18 07:07:00,57.2,47.5,29.32,SSW,202,10.9,10.9,70,0.00,CLR,,0.00,WeatherDisplay:10.37,2013-01-18 05:07:00,
2013-01-18 07:08:00,57.2,47.5,29.32,South,180,11.5,11.5,70,0.00,CLR,,0.00,WeatherDisplay:10.37,2013-01-18 05:08:00,
2013-01-18 07:10:00,57.2,47.5,29.32,SE,135,24.2,24.2,70,0.00,CLR,,0.00,WeatherDisplay:10.37,2013-01-18 05:10:00,
2013-01-18 07:12:00,57.2,47.5,29.32,SW,225,24.2,24.2,70,0.00,CLR,,0.00,WeatherDisplay:10.37,2013-01-18 05:12:00,
2013-01-18 07:13:00,57.2,47.5,29.32,South,180,12.7,12.7,70,0.00,CLR,,0.00,WeatherDisplay:10.37,2013-01-18 05:13:00,
2013-01-18 07:15:00,57.4,47.7,29.32,South,180,26.5,26.5,70,0.00,CLR,,0.00,WeatherDisplay:10.37,2013-01-18 05:15:00,
2013-01-18 07:17:00,57.4,47.3,29.29,South,180,25.3,25.3,69,0.00,CLR,,0.00,WeatherDisplay:10.37,2013-01-18 05:17:00,
2013-01-18 07:19:00,57.4,47.3,29.29,South,180,13.8,13.8,69,0.00,CLR,,0.00,WeatherDisplay:10.37,2013-01-18 05:19:00,
2013-01-18 07:20:00,57.4,46.9,29.29,SSE,158,15.0,15.0,68,0.00,CLR,,0.00,WeatherDisplay:10.37,2013-01-18 05:20:00,
2013-01-18 07:21:00,57.4,46.9,29.29,SSE,158,15.0,15.0,68,0.00,CLR,,0.00,WeatherDisplay:10.37,2013-01-18 05:21:00,
2013-01-18 07:22:00,57.6,47.1,29.29,SSE,158,26.5,26.5,68,0.00,CLR,,0.00,WeatherDisplay:10.37,2013-01-18 05:22:00,
2013-01-18 07:24:00,57.6,46.7,29.29,SSE,158,17.3,17.3,67,0.00,CLR,,0.00,WeatherDisplay:10.37,2013-01-18 05:24:00,
2013-01-18 07:25:00,57.6,46.3,29.29,South,180,25.3,25.3,66,0.00,CLR,,0.00,WeatherDisplay:10.37,2013-01-18 05:25:00,
2013-01-18 07:26:00,57.6,46.3,29.29,ESE,112,19.6,19.6,66,0.00,CLR,,0.00,WeatherDisplay:10.37,2013-01-18 05:26:00,
2013-01-18 07:27:00,57.6,46.3,29.29,SSE,158,17.3,17.3,66,0.00,CLR,,0.00,WeatherDisplay:10.37,2013-01-18 05:27:00,
2013-01-18 07:29:00,57.6,46.3,29.29,SSE,158,21.9,21.9,66,0.00,CLR,,0.00,WeatherDisplay:10.37,2013-01-18 05:29:00,
2013-01-18 07:31:00,57.7,45.6,29.29,SSE,158,27.6,27.6,64,0.00,CLR,,0.00,WeatherDisplay:10.37,2013-01-18 05:31:00,
2013-01-18 07:32:00,57.7,45.6,29.29,South,180,23.0,23.0,64,0.00,CLR,,0.00,WeatherDisplay:10.37,2013-01-18 05:32:00,
2013-01-18 07:34:00,57.7,45.6,29.29,SE,135,11.5,11.5,64,0.00,CLR,,0.00,WeatherDisplay:10.37,2013-01-18 05:34:00,
2013-01-18 07:36:00,57.7,45.6,29.29,SSE,158,12.8,12.8,64,0.00,CLR,,0.00,WeatherDisplay:10.37,2013-01-18 05:36:00,
2013-01-18 07:37:00,57.7,45.2,29.29,SSE,158,12.7,12.7,63,0.00,CLR,,0.00,WeatherDisplay:10.37,2013-01-18 05:37:00,
2013-01-18 07:39:00,57.7,45.2,29.29,SSE,158,12.7,12.7,63,0.00,CLR,,0.00,WeatherDisplay:10.37,2013-01-18 05:39:00,
2013-01-18 07:41:00,57.7,45.2,29.29,South,180,15.0,15.0,63,0.00,CLR,,0.00,WeatherDisplay:10.37,2013-01-18 05:41:00,
2013-01-18 07:43:00,57.7,45.2,29.29,South,180,21.9,21.9,63,0.00,CLR,,0.00,WeatherDisplay:10.37,2013-01-18 05:43:00,
2013-01-18 07:44:00,57.6,45.1,29.29,SSE,158,15.0,15.0,63,0.00,CLR,,0.00,WeatherDisplay:10.37,2013-01-18 05:44:00,
2013-01-18 07:46:00,57.6,45.5,29.29,SSE,158,19.6,19.6,64,0.00,CLR,,0.00,WeatherDisplay:10.37,2013-01-18 05:46:00,
2013-01-18 07:48:00,57.6,45.9,29.32,SSE,158,12.7,12.7,65,0.00,CLR,,0.00,WeatherDisplay:10.37,2013-01-18 05:48:00,
2013-01-18 07:49:00,57.7,46.5,29.32,SSW,202,15.0,15.0,66,0.00,CLR,,0.00,WeatherDisplay:10.37,2013-01-18 05:49:00,
2013-01-18 07:51:00,57.6,46.3,29.32,South,180,9.2,9.2,66,0.00,CLR,,0.00,WeatherDisplay:10.37,2013-01-18 05:51:00,
2013-01-18 07:53:00,57.6,46.3,29.32,SSE,158,10.4,10.4,66,0.00,CLR,,0.00,WeatherDisplay:10.37,2013-01-18 05:53:00,
2013-01-18 07:54:00,57.6,46.3,29.32,SSE,158,12.7,12.7,66,0.00,CLR,,0.00,WeatherDisplay:10.37,2013-01-18 05:54:00,
2013-01-18 07:56:00,57.6,45.9,29.32,SSE,158,15.0,15.0,65,0.00,CLR,,0.00,WeatherDisplay:10.37,2013-01-18 05:56:00,
2013-01-18 07:58:00,57.6,45.9,29.32,SSE,158,11.5,11.5,65,0.00,CLR,,0.00,WeatherDisplay:10.37,2013-01-18 05:58:00,
2013-01-18 07:59:00,57.4,45.7,29.32,South,180,21.5,21.5,65,0.00,CLR,,0.00,WeatherDisplay:10.37,2013-01-18 05:59:00,
2013-01-18 08:01:00,57.4,45.7,29.32,SSE,158,20.7,20.7,65,0.00,CLR,,0.00,WeatherDisplay:10.37,2013-01-18 06:01:00,
2013-01-18 08:03:00,57.4,46.1,29.29,SSW,202,13.8,13.8,66,0.00,CLR,,0.00,WeatherDisplay:10.37,2013-01-18 06:03:00,
2013-01-18 08:04:00,57.2,46.7,29.29,SSE,158,10.4,10.4,68,0.00,CLR,,0.00,WeatherDisplay:10.37,2013-01-18 06:04:00,
2013-01-18 08:06:00,57.2,47.1,29.29,SSW,202,11.5,11.5,69,0.00,CLR,,0.00,WeatherDisplay:10.37,2013-01-18 06:06:00,
2013-01-18 08:08:00,57.2,47.5,29.29,SSW,202,15.0,15.0,70,0.00,CLR,,0.00,WeatherDisplay:10.37,2013-01-18 06:08:00,
2013-01-18 08:09:00,57.2,47.5,29.29,SSW,202,15.0,15.0,70,0.00,CLR,,0.00,WeatherDisplay:10.37,2013-01-18 06:09:00,
2013-01-18 08:11:00,57.2,48.3,29.29,SSW,202,16.1,16.1,72,0.00,CLR,,0.00,WeatherDisplay:10.37,2013-01-18 06:11:00,
2013-01-18 08:12:00,57.2,48.3,29.29,SSW,202,11.5,11.5,72,0.00,CLR,,0.00,WeatherDisplay:10.37,2013-01-18 06:12:00,
2013-01-18 08:13:00,57.2,47.9,29.29,SSW,202,17.0,17.0,71,0.00,CLR,,0.00,WeatherDisplay:10.37,2013-01-18 06:13:00,
2013-01-18 08:14:00,57.2,47.5,29.29,SSW,202,24.2,24.2,70,0.00,CLR,,0.00,WeatherDisplay:10.37,2013-01-18 06:14:00,
2013-01-18 08:17:00,57.2,47.9,29.29,South,180,9.2,9.2,71,0.00,CLR,,0.00,WeatherDisplay:10.37,2013-01-18 06:17:00,
2013-01-18 08:18:00,57.2,47.9,29.29,SSW,202,12.8,12.8,71,0.00,CLR,,0.00,WeatherDisplay:10.37,2013-01-18 06:18:00,
2013-01-18 08:19:00,57.2,48.3,29.29,South,180,12.7,12.7,72,0.00,CLR,,0.00,WeatherDisplay:10.37,2013-01-18 06:19:00,
2013-01-18 08:23:00,57.2,49.3,29.29,South,180,12.7,12.7,75,0.00,CLR,,0.00,WeatherDisplay:10.37,2013-01-18 06:23:00,
2013-01-18 08:24:00,57.2,50.1,29.29,SSE,158,13.8,13.8,77,0.00,CLR,,0.00,WeatherDisplay:10.37,2013-01-18 06:24:00,
2013-01-18 08:28:00,57.0,50.9,29.29,South,180,10.4,10.4,80,0.00,CLR,,0.00,WeatherDisplay:10.37,2013-01-18 06:28:00,
2013-01-18 08:29:00,57.0,50.9,29.29,SSE,158,10.4,10.4,80,0.00,CLR,,0.00,WeatherDisplay:10.37,2013-01-18 06:29:00,
2013-01-18 08:33:00,56.8,51.1,29.29,SSE,158,12.7,12.7,81,0.00,CLR,,0.00,WeatherDisplay:10.37,2013-01-18 06:33:00,
2013-01-18 08:34:00,56.8,51.4,29.29,SSE,158,13.2,13.2,82,0.00,CLR,,0.00,WeatherDisplay:10.37,2013-01-18 06:34:00,
2013-01-18 08:38:00,56.7,51.9,29.29,South,180,11.5,11.5,84,0.00,CLR,,0.00,WeatherDisplay:10.37,2013-01-18 06:38:00,
2013-01-18 08:39:00,56.7,51.9,29.29,SSW,202,8.1,8.1,84,0.00,CLR,,0.00,WeatherDisplay:10.37,2013-01-18 06:39:00,
2013-01-18 08:43:00,56.7,52.5,29.29,South,180,9.2,9.2,86,0.00,CLR,,0.00,WeatherDisplay:10.37,2013-01-18 06:43:00,
2013-01-18 08:44:00,56.7,52.5,29.29,South,180,9.2,9.2,86,0.00,CLR,,0.00,WeatherDisplay:10.37,2013-01-18 06:44:00,
2013-01-18 08:45:00,56.7,52.8,29.29,South,178,9.0,15.0,87,0.00,CLR,,0.00,WeatherDisplay:10.37,2013-01-18 06:45:00,
2013-01-18 08:48:00,56.7,53.1,29.29,SSE,158,11.5,11.5,88,0.00,CLR,,0.00,WeatherDisplay:10.37,2013-01-18 06:48:00,
2013-01-18 08:49:00,56.7,53.1,29.29,SSE,158,12.7,12.7,88,0.00,CLR,,0.00,WeatherDisplay:10.37,2013-01-18 06:49:00,
2013-01-18 08:50:00,56.5,53.3,29.29,SSE,158,16.1,16.1,89,0.00,CLR,,0.00,WeatherDisplay:10.37,2013-01-18 06:50:00,
2013-01-18 08:54:00,56.5,53.6,29.29,South,180,11.5,11.5,90,0.00,CLR,,0.00,WeatherDisplay:10.37,2013-01-18 06:54:00,
2013-01-18 08:55:00,56.5,53.6,29.29,SSE,158,15.0,15.0,90,0.00,CLR,,0.00,WeatherDisplay:10.37,2013-01-18 06:55:00,
2013-01-18 08:59:00,56.5,53.6,29.29,SE,135,15.0,15.0,90,0.00,CLR,,0.00,WeatherDisplay:10.37,2013-01-18 06:59:00,
2013-01-18 09:00:00,56.3,53.1,29.29,South,180,10.4,10.4,89,0.00,CLR,,0.00,WeatherDisplay:10.37,2013-01-18 07:00:00,
2013-01-18 09:04:00,56.5,53.0,29.29,SSE,158,11.5,11.5,88,0.00,CLR,,0.00,WeatherDisplay:10.37,2013-01-18 07:04:00,
2013-01-18 09:05:00,56.5,53.0,29.29,SSE,158,11.5,11.5,88,0.00,CLR,,0.00,WeatherDisplay:10.37,2013-01-18 07:05:00,
2013-01-18 09:09:00,56.5,51.7,29.29,SSW,202,13.8,13.8,84,0.00,CLR,,0.00,WeatherDisplay:10.37,2013-01-18 07:09:00,
2013-01-18 09:10:00,56.5,51.7,29.29,SSE,158,15.0,15.0,84,0.00,CLR,,0.00,WeatherDisplay:10.37,2013-01-18 07:10:00,
2013-01-18 09:14:00,56.7,51.9,29.29,South,180,12.3,12.3,84,0.00,CLR,,0.00,WeatherDisplay:10.37,2013-01-18 07:14:00,
2013-01-18 09:16:00,56.7,51.9,29.29,SSE,158,17.3,17.3,84,0.00,CLR,,0.00,WeatherDisplay:10.37,2013-01-18 07:16:00,
2013-01-18 09:19:00,56.8,51.7,29.29,SSE,158,12.7,12.7,83,0.00,CLR,,0.00,WeatherDisplay:10.37,2013-01-18 07:19:00,
2013-01-18 09:20:00,56.8,51.7,29.29,SSE,158,6.9,6.9,83,0.00,CLR,,0.00,WeatherDisplay:10.37,2013-01-18 07:20:00,
2013-01-18 09:21:00,56.8,51.7,29.29,South,180,10.4,10.4,83,0.00,CLR,,0.00,WeatherDisplay:10.37,2013-01-18 07:21:00,
2013-01-18 09:25:00,57.0,50.6,29.29,South,181,8.0,13.0,79,0.00,CLR,,0.00,WeatherDisplay:10.37,2013-01-18 07:25:00,
2013-01-18 09:26:00,57.2,49.7,29.29,SSE,158,11.5,11.5,76,0.00,CLR,,0.00,WeatherDisplay:10.37,2013-01-18 07:26:00,
2013-01-18 09:30:00,57.4,50.2,29.29,SSE,158,4.6,4.9,77,0.00,CLR,,0.00,WeatherDisplay:10.37,2013-01-18 07:30:00,
2013-01-18 09:31:00,57.4,50.2,29.29,SSE,158,12.7,12.7,77,0.00,CLR,,0.00,WeatherDisplay:10.37,2013-01-18 07:31:00,
2013-01-18 09:35:00,57.6,50.0,29.29,SSW,202,10.5,10.5,76,0.00,CLR,,0.00,WeatherDisplay:10.37,2013-01-18 07:35:00,
2013-01-18 09:36:00,57.6,50.0,29.29,SSE,158,10.4,10.4,76,0.00,CLR,,0.00,WeatherDisplay:10.37,2013-01-18 07:36:00,
2013-01-18 09:40:00,57.7,49.5,29.29,South,180,8.1,8.1,74,0.00,CLR,,0.00,WeatherDisplay:10.37,2013-01-18 07:40:00,
2013-01-18 09:41:00,57.7,48.4,29.29,SSE,158,8.1,8.1,71,0.00,CLR,,0.00,WeatherDisplay:10.37,2013-01-18 07:41:00,
2013-01-18 09:42:00,57.7,48.4,29.29,South,180,8.1,8.1,71,0.00,CLR,,0.00,WeatherDisplay:10.37,2013-01-18 07:42:00,
2013-01-18 09:45:00,57.9,47.0,29.29,SSE,158,12.8,12.8,67,0.00,CLR,,0.00,WeatherDisplay:10.37,2013-01-18 07:45:00,
2013-01-18 09:46:00,58.1,46.8,29.29,SSE,158,14.7,14.7,66,0.00,CLR,,0.00,WeatherDisplay:10.37,2013-01-18 07:46:00,
2013-01-18 09:47:00,58.1,46.8,29.29,SSE,158,15.0,15.0,66,0.00,CLR,,0.00,WeatherDisplay:10.37,2013-01-18 07:47:00,
2013-01-18 09:50:00,58.1,46.0,29.29,South,180,15.0,15.0,64,0.00,CLR,,0.00,WeatherDisplay:10.37,2013-01-18 07:50:00,
2013-01-18 09:51:00,58.3,45.7,29.29,SSW,202,19.6,19.6,63,0.00,CLR,,0.00,WeatherDisplay:10.37,2013-01-18 07:51:00,
2013-01-18 09:52:00,58.3,45.7,29.29,South,180,12.7,12.7,63,0.00,CLR,,0.00,WeatherDisplay:10.37,2013-01-18 07:52:00,
2013-01-18 09:55:00,58.3,46.2,29.29,SSE,158,16.1,16.1,64,0.00,CLR,,0.00,WeatherDisplay:10.37,2013-01-18 07:55:00,
2013-01-18 09:57:00,58.3,47.4,29.29,SSE,158,16.1,16.1,67,0.00,CLR,,0.00,WeatherDisplay:10.37,2013-01-18 07:57:00,
2013-01-18 10:00:00,57.9,48.6,29.29,SW,225,24.2,24.2,71,0.00,CLR,,0.00,WeatherDisplay:10.37,2013-01-18 08:00:00,
2013-01-18 10:01:00,57.9,48.6,29.29,SE,135,24.2,24.2,71,0.00,CLR,,0.00,WeatherDisplay:10.37,2013-01-18 08:01:00,
2013-01-18 10:02:00,57.9,49.3,29.32,SSW,202,17.3,17.3,73,0.00,CLR,,0.00,WeatherDisplay:10.37,2013-01-18 08:02:00,
2013-01-18 10:05:00,57.9,49.3,29.32,SE,135,23.2,23.2,73,0.00,CLR,,0.00,WeatherDisplay:10.37,2013-01-18 08:05:00,
2013-01-18 10:06:00,57.9,49.3,29.32,SSW,202,23.0,23.0,73,0.00,CLR,,0.00,WeatherDisplay:10.37,2013-01-18 08:06:00,
2013-01-18 10:07:00,57.9,48.9,29.32,South,180,19.6,19.6,72,0.00,CLR,,0.00,WeatherDisplay:10.37,2013-01-18 08:07:00,
2013-01-18 10:10:00,57.9,47.4,29.32,SSE,158,17.3,17.3,68,0.00,CLR,,0.00,WeatherDisplay:10.37,2013-01-18 08:10:00,
2013-01-18 10:11:00,57.9,47.4,29.32,SSE,158,17.3,17.3,68,0.00,CLR,,0.00,WeatherDisplay:10.37,2013-01-18 08:11:00,
2013-01-18 10:12:00,57.9,47.8,29.32,South,180,24.2,24.2,69,0.00,CLR,,0.00,WeatherDisplay:10.37,2013-01-18 08:12:00,
2013-01-18 10:15:00,57.9,48.9,29.32,SSE,158,17.3,17.3,72,0.00,CLR,,0.00,WeatherDisplay:10.37,2013-01-18 08:15:00,
2013-01-18 10:16:00,57.9,48.9,29.32,SSE,158,15.0,15.0,72,0.00,CLR,,0.00,WeatherDisplay:10.37,2013-01-18 08:16:00,
2013-01-18 10:17:00,57.9,48.9,29.32,SSE,158,23.0,23.0,72,0.00,CLR,,0.00,WeatherDisplay:10.37,2013-01-18 08:17:00,
2013-01-18 10:20:00,57.9,48.6,29.32,SSE,158,25.3,25.3,71,0.00,CLR,,0.00,WeatherDisplay:10.37,2013-01-18 08:20:00,
2013-01-18 10:21:00,57.9,48.6,29.32,SSE,158,23.0,23.0,71,0.00,CLR,,0.00,WeatherDisplay:10.37,2013-01-18 08:21:00,
2013-01-18 10:22:00,57.9,48.9,29.32,SSW,202,23.0,23.0,72,0.00,CLR,,0.00,WeatherDisplay:10.37,2013-01-18 08:22:00,
2013-01-18 10:26:00,57.7,49.1,29.32,SSW,202,25.3,25.3,73,0.00,CLR,,0.00,WeatherDisplay:10.37,2013-01-18 08:26:00,
2013-01-18 10:27:00,57.6,48.6,29.32,South,180,21.9,21.9,72,0.00,CLR,,0.00,WeatherDisplay:10.37,2013-01-18 08:27:00,
2013-01-18 10:31:00,57.6,50.8,29.32,SSE,158,24.2,24.2,78,0.00,CLR,,0.00,WeatherDisplay:10.37,2013-01-18 08:31:00,
2013-01-18 10:32:00,57.6,50.8,29.32,SSW,202,23.0,23.0,78,0.00,CLR,,0.00,WeatherDisplay:10.37,2013-01-18 08:32:00,
2013-01-18 10:36:00,57.4,50.9,29.32,SE,135,24.2,24.2,79,0.00,CLR,,0.00,WeatherDisplay:10.37,2013-01-18 08:36:00,
2013-01-18 10:37:00,57.2,50.7,29.32,SW,225,29.9,29.9,79,0.00,CLR,,0.00,WeatherDisplay:10.37,2013-01-18 08:37:00,
2013-01-18 10:41:00,57.2,50.7,29.32,SSE,158,23.0,23.0,79,0.00,CLR,,0.00,WeatherDisplay:10.37,2013-01-18 08:41:00,
2013-01-18 10:42:00,57.2,51.1,29.32,SSE,158,21.9,21.9,80,0.00,CLR,,0.00,WeatherDisplay:10.37,2013-01-18 08:42:00,
2013-01-18 10:43:00,57.2,51.1,29.32,South,180,21.9,21.9,80,0.00,CLR,,0.00,WeatherDisplay:10.37,2013-01-18 08:43:00,
2013-01-18 10:46:00,57.2,51.8,29.32,SSE,158,20.7,20.7,82,0.00,CLR,,0.00,WeatherDisplay:10.37,2013-01-18 08:46:00,
2013-01-18 10:48:00,57.2,52.7,29.29,ESE,112,12.7,12.7,85,0.00,CLR,,0.00,WeatherDisplay:10.37,2013-01-18 08:48:00,
2013-01-18 10:51:00,57.0,53.2,29.29,SSW,202,11.5,11.5,87,0.00,CLR,,0.00,WeatherDisplay:10.37,2013-01-18 08:51:00,
2013-01-18 10:53:00,57.0,53.5,29.29,SSE,158,19.6,19.6,88,0.00,CLR,,0.00,WeatherDisplay:10.37,2013-01-18 08:53:00,
2013-01-18 10:56:00,56.8,53.6,29.29,SSW,202,11.5,11.5,89,0.00,CLR,,0.00,WeatherDisplay:10.37,2013-01-18 08:56:00,
2013-01-18 10:58:00,56.8,53.3,29.29,SSE,158,30.1,30.1,88,0.00,CLR,,0.00,WeatherDisplay:10.37,2013-01-18 08:58:00,
2013-01-18 11:01:00,56.8,52.4,29.29,SSE,158,22.3,22.3,85,0.00,CLR,,0.00,WeatherDisplay:10.37,2013-01-18 09:01:00,
2013-01-18 11:03:00,56.8,52.1,29.29,SSE,158,21.9,21.9,84,0.00,CLR,,0.00,WeatherDisplay:10.37,2013-01-18 09:03:00,
2013-01-18 11:06:00,56.8,52.1,29.29,SW,225,28.8,28.8,84,0.00,CLR,,0.00,WeatherDisplay:10.37,2013-01-18 09:06:00,
2013-01-18 11:07:00,56.8,52.1,29.29,SW,225,28.8,28.8,84,0.00,CLR,,0.00,WeatherDisplay:10.37,2013-01-18 09:07:00,
2013-01-18 11:08:00,56.8,52.4,29.29,South,180,24.2,24.2,85,0.00,CLR,,0.00,WeatherDisplay:10.37,2013-01-18 09:08:00,
2013-01-18 11:12:00,56.8,52.7,29.29,SSE,158,20.7,20.7,86,0.00,CLR,,0.00,WeatherDisplay:10.37,2013-01-18 09:12:00,
2013-01-18 11:13:00,56.8,52.7,29.29,SSE,158,26.5,26.5,86,0.00,CLR,,0.00,WeatherDisplay:10.37,2013-01-18 09:13:00,
2013-01-18 11:17:00,56.8,52.7,29.29,SSE,158,21.9,21.9,86,0.00,CLR,,0.00,WeatherDisplay:10.37,2013-01-18 09:17:00,
2013-01-18 11:18:00,56.8,52.7,29.29,SSW,202,15.0,15.0,86,0.00,CLR,,0.00,WeatherDisplay:10.37,2013-01-18 09:18:00,
2013-01-18 11:22:00,57.0,52.2,29.29,South,180,19.6,19.6,84,0.00,CLR,,0.00,WeatherDisplay:10.37,2013-01-18 09:22:00,
2013-01-18 11:23:00,57.0,52.2,29.29,SSW,202,25.3,25.3,84,0.00,CLR,,0.00,WeatherDisplay:10.37,2013-01-18 09:23:00,
2013-01-18 11:24:00,57.0,52.2,29.29,SSW,202,25.3,25.3,84,0.00,CLR,,0.00,WeatherDisplay:10.37,2013-01-18 09:24:00,
2013-01-18 11:27:00,57.0,52.2,29.29,SSW,202,19.0,19.0,84,0.00,CLR,,0.00,WeatherDisplay:10.37,2013-01-18 09:27:00,
2013-01-18 11:28:00,57.0,52.2,29.29,South,180,19.7,19.7,84,0.00,CLR,,0.00,WeatherDisplay:10.37,2013-01-18 09:28:00,
2013-01-18 11:29:00,57.0,52.6,29.29,South,180,19.6,19.6,85,0.00,CLR,,0.00,WeatherDisplay:10.37,2013-01-18 09:29:00,
2013-01-18 11:32:00,56.8,53.0,29.26,SSW,202,21.9,21.9,87,0.00,CLR,,0.00,WeatherDisplay:10.37,2013-01-18 09:32:00,
2013-01-18 11:33:00,56.8,53.3,29.26,SE,135,15.0,15.0,88,0.00,CLR,,0.00,WeatherDisplay:10.37,2013-01-18 09:33:00,
2013-01-18 11:34:00,56.7,53.5,29.26,SSW,202,18.4,18.4,89,0.00,CLR,,0.00,WeatherDisplay:10.37,2013-01-18 09:34:00,
2013-01-18 11:37:00,56.3,53.7,29.26,SSW,202,17.3,17.3,91,0.00,CLR,,0.00,WeatherDisplay:10.37,2013-01-18 09:37:00,
2013-01-18 11:38:00,56.1,53.8,29.26,SSW,202,19.6,19.6,92,0.00,CLR,,0.00,WeatherDisplay:10.37,2013-01-18 09:38:00,
2013-01-18 11:39:00,55.9,53.9,29.26,WSW,248,15.0,15.0,93,0.00,CLR,,0.04,WeatherDisplay:10.37,2013-01-18 09:39:00,
2013-01-18 11:42:00,55.4,54.6,29.26,SSE,158,13.8,13.8,97,0.04,RA,,0.08,WeatherDisplay:10.37,2013-01-18 09:42:00,
2013-01-18 11:43:00,55.2,54.9,29.26,WSW,248,11.5,11.8,99,0.08,RA,,0.08,WeatherDisplay:10.37,2013-01-18 09:43:00,
2013-01-18 11:44:00,55.2,55.2,29.26,SSW,202,13.8,13.8,100,0.08,RA,,0.08,WeatherDisplay:10.37,2013-01-18 09:44:00,
2013-01-18 11:47:00,55.0,54.8,29.26,SSE,158,12.8,12.8,99,0.08,RA,,0.08,WeatherDisplay:10.37,2013-01-18 09:47:00,
2013-01-18 11:48:00,55.2,54.9,29.26,SSW,202,12.7,12.7,99,0.08,RA,,0.08,WeatherDisplay:10.37,2013-01-18 09:48:00,
2013-01-18 11:49:00,55.2,54.9,29.26,SSW,202,11.5,11.5,99,0.08,RA,,0.08,WeatherDisplay:10.37,2013-01-18 09:49:00,
2013-01-18 11:52:00,55.2,54.9,29.26,SSW,202,10.4,10.4,99,0.08,RA,,0.08,WeatherDisplay:10.37,2013-01-18 09:52:00,
2013-01-18 11:53:00,55.2,54.9,29.26,SSW,202,12.7,12.7,99,0.08,,,0.08,WeatherDisplay:10.37,2013-01-18 09:53:00,
2013-01-18 11:55:00,55.2,54.9,29.26,SSE,158,10.4,10.4,99,0.08,,,0.08,WeatherDisplay:10.37,2013-01-18 09:55:00,
2013-01-18 11:57:00,55.0,54.8,29.26,South,180,10.4,10.4,99,0.08,CLR,,0.08,WeatherDisplay:10.37,2013-01-18 09:57:00,
2013-01-18 11:58:00,55.0,54.8,29.26,SSW,202,10.4,10.4,99,0.08,CLR,,0.08,WeatherDisplay:10.37,2013-01-18 09:58:00,
2013-01-18 12:00:00,55.2,54.9,29.26,South,180,14.0,14.0,99,0.08,CLR,,0.08,WeatherDisplay:10.37,2013-01-18 10:00:00,
2013-01-18 12:02:00,55.2,54.9,29.26,SW,225,10.4,10.4,99,0.08,CLR,,0.08,WeatherDisplay:10.37,2013-01-18 10:02:00,
2013-01-18 12:03:00,55.2,54.9,29.26,SSW,202,10.4,10.4,99,0.08,CLR,,0.08,WeatherDisplay:10.37,2013-01-18 10:03:00,
2013-01-18 12:05:00,55.1,54.9,29.26,SSW,196,5.0,14.0,99,0.00,CLR,,0.08,WeatherDisplay:10.37,2013-01-18 10:05:00,
2013-01-18 12:07:00,55.0,54.8,29.26,SSW,202,11.5,11.5,99,0.08,CLR,,0.08,WeatherDisplay:10.37,2013-01-18 10:07:00,
2013-01-18 12:08:00,54.9,54.6,29.26,South,180,9.2,9.2,99,0.08,CLR,,0.08,WeatherDisplay:10.37,2013-01-18 10:08:00,
2013-01-18 12:10:00,54.9,54.6,29.26,SSW,202,11.5,11.5,99,0.08,CLR,,0.08,WeatherDisplay:10.37,2013-01-18 10:10:00,
2013-01-18 12:12:00,55.0,54.8,29.26,SSW,202,11.5,11.5,99,0.08,CLR,,0.08,WeatherDisplay:10.37,2013-01-18 10:12:00,
2013-01-18 12:13:00,55.0,54.8,29.26,SSW,202,11.5,11.5,99,0.08,CLR,,0.08,WeatherDisplay:10.37,2013-01-18 10:13:00,
2013-01-18 12:15:00,55.0,54.8,29.26,SSW,197,5.0,12.0,99,0.00,CLR,,0.08,WeatherDisplay:10.37,2013-01-18 10:15:00,
2013-01-18 12:18:00,55.0,54.8,29.26,SSW,202,9.2,9.2,99,0.08,CLR,,0.08,WeatherDisplay:10.37,2013-01-18 10:18:00,
2013-01-18 12:20:00,55.0,54.8,29.26,SSW,195,6.0,9.0,99,0.00,RA,,0.13,WeatherDisplay:10.37,2013-01-18 10:20:00,
2013-01-18 12:23:00,54.9,54.6,29.26,SSW,202,9.2,9.2,99,0.13,RA,,0.13,WeatherDisplay:10.37,2013-01-18 10:23:00,
2013-01-18 12:24:00,55.0,54.8,29.26,South,180,9.2,9.2,99,0.13,RA,,0.13,WeatherDisplay:10.37,2013-01-18 10:24:00,
2013-01-18 12:25:00,55.0,54.8,29.26,SSW,202,8.1,8.1,99,0.13,RA,,0.13,WeatherDisplay:10.37,2013-01-18 10:25:00,
2013-01-18 12:28:00,55.0,54.8,29.26,West,270,8.1,8.1,99,0.13,RA,,0.13,WeatherDisplay:10.37,2013-01-18 10:28:00,
2013-01-18 12:29:00,55.2,54.9,29.26,SSW,202,8.1,8.1,99,0.13,,,0.13,WeatherDisplay:10.37,2013-01-18 10:29:00,
2013-01-18 12:30:00,55.2,54.9,29.26,SSW,202,8.1,8.1,99,0.13,,,0.13,WeatherDisplay:10.37,2013-01-18 10:30:00,
2013-01-18 12:33:00,55.2,54.9,29.26,WSW,248,5.8,5.8,99,0.13,CLR,,0.13,WeatherDisplay:10.37,2013-01-18 10:33:00,
2013-01-18 12:34:00,55.2,54.9,29.26,SSW,202,5.8,5.8,99,0.13,CLR,,0.13,WeatherDisplay:10.37,2013-01-18 10:34:00,
2013-01-18 12:35:00,55.2,54.9,29.26,WSW,248,5.8,5.8,99,0.13,CLR,,0.13,WeatherDisplay:10.37,2013-01-18 10:35:00,
2013-01-18 12:38:00,55.2,54.9,29.26,West,270,8.1,8.1,99,0.13,CLR,,0.13,WeatherDisplay:10.37,2013-01-18 10:38:00,
2013-01-18 12:39:00,55.2,54.9,29.26,WSW,248,10.0,10.0,99,0.13,CLR,,0.13,WeatherDisplay:10.37,2013-01-18 10:39:00,
2013-01-18 12:41:00,55.0,55.0,29.26,South,180,8.1,8.1,100,0.09,CLR,,0.13,WeatherDisplay:10.37,2013-01-18 10:41:00,
2013-01-18 12:43:00,55.0,55.0,29.26,WSW,248,4.7,4.7,100,0.09,CLR,,0.13,WeatherDisplay:10.37,2013-01-18 10:43:00,
2013-01-18 12:44:00,55.0,55.0,29.26,WSW,248,4.6,4.6,100,0.05,CLR,,0.13,WeatherDisplay:10.37,2013-01-18 10:44:00,
2013-01-18 12:46:00,54.9,54.9,29.26,WSW,248,7.1,7.1,100,0.05,CLR,,0.13,WeatherDisplay:10.37,2013-01-18 10:46:00,
2013-01-18 12:48:00,54.7,54.7,29.24,West,270,10.4,10.4,100,0.05,CLR,,0.13,WeatherDisplay:10.37,2013-01-18 10:48:00,
2013-01-18 12:49:00,54.5,54.5,29.24,WSW,248,10.4,10.4,100,0.05,CLR,,0.13,WeatherDisplay:10.37,2013-01-18 10:49:00,
2013-01-18 12:51:00,54.7,54.7,29.24,West,270,3.6,3.6,100,0.05,CLR,,0.13,WeatherDisplay:10.37,2013-01-18 10:51:00,
2013-01-18 12:54:00,54.7,54.7,29.24,WSW,248,5.8,5.8,100,0.05,CLR,,0.13,WeatherDisplay:10.37,2013-01-18 10:54:00,
2013-01-18 12:56:00,54.3,54.3,29.24,SSW,202,8.1,8.1,100,0.05,CLR,,0.13,WeatherDisplay:10.37,2013-01-18 10:56:00,
2013-01-18 12:59:00,54.1,54.1,29.24,West,270,9.2,9.2,100,0.05,CLR,,0.13,WeatherDisplay:10.37,2013-01-18 10:59:00,
2013-01-18 13:00:00,54.1,54.1,29.24,West,270,9.2,9.2,100,0.05,CLR,,0.13,WeatherDisplay:10.37,2013-01-18 11:00:00,
2013-01-18 13:01:00,54.1,54.1,29.24,WNW,292,5.8,5.8,100,0.05,CLR,,0.13,WeatherDisplay:10.37,2013-01-18 11:01:00,
2013-01-18 13:04:00,54.1,53.9,29.24,WSW,248,3.5,3.5,99,0.05,CLR,,0.13,WeatherDisplay:10.37,2013-01-18 11:04:00,
2013-01-18 13:05:00,54.0,53.7,29.24,West,270,4.6,4.6,99,0.05,CLR,,0.13,WeatherDisplay:10.37,2013-01-18 11:05:00,
2013-01-18 13:06:00,54.0,53.7,29.24,West,270,5.8,5.8,99,0.05,CLR,,0.13,WeatherDisplay:10.37,2013-01-18 11:06:00,
2013-01-18 13:09:00,54.0,53.7,29.24,WNW,292,3.8,3.8,99,0.05,CLR,,0.13,WeatherDisplay:10.37,2013-01-18 11:09:00,
2013-01-18 13:10:00,54.0,53.7,29.24,WNW,292,5.8,5.8,99,0.05,CLR,,0.13,WeatherDisplay:10.37,2013-01-18 11:10:00,
2013-01-18 13:12:00,54.0,53.7,29.24,WNW,292,3.5,3.5,99,0.05,CLR,,0.13,WeatherDisplay:10.37,2013-01-18 11:12:00,
2013-01-18 13:14:00,53.8,53.5,29.24,NW,315,3.5,3.5,99,0.05,CLR,,0.13,WeatherDisplay:10.37,2013-01-18 11:14:00,
2013-01-18 13:15:00,53.8,53.5,29.24,SW,225,3.5,3.5,99,0.05,CLR,,0.13,WeatherDisplay:10.37,2013-01-18 11:15:00,
2013-01-18 13:17:00,53.8,53.8,29.26,West,270,3.5,3.5,100,0.05,CLR,,0.13,WeatherDisplay:10.37,2013-01-18 11:17:00,
2013-01-18 13:19:00,53.8,53.8,29.26,WSW,248,4.6,4.6,100,0.05,CLR,,0.13,WeatherDisplay:10.37,2013-01-18 11:19:00,
2013-01-18 13:21:00,53.8,53.5,29.26,West,270,3.5,3.5,99,0.00,CLR,,0.13,WeatherDisplay:10.37,2013-01-18 11:21:00,
2013-01-18 13:22:00,53.6,53.3,29.26,WNW,292,3.5,3.5,99,0.00,CLR,,0.13,WeatherDisplay:10.37,2013-01-18 11:22:00,
2013-01-18 13:24:00,53.6,53.3,29.26,WSW,248,2.4,2.4,99,0.00,CLR,,0.13,WeatherDisplay:10.37,2013-01-18 11:24:00,
2013-01-18 13:26:00,53.6,53.3,29.26,WSW,248,0.0,0.0,99,0.00,CLR,,0.13,WeatherDisplay:10.37,2013-01-18 11:26:00,
2013-01-18 13:28:00,53.4,53.1,29.26,WSW,248,1.1,0.0,99,0.00,CLR,,0.13,WeatherDisplay:10.37,2013-01-18 11:28:00,
2013-01-18 13:29:00,53.4,53.1,29.26,WSW,248,3.5,3.5,99,0.00,CLR,,0.13,WeatherDisplay:10.37,2013-01-18 11:29:00,
2013-01-18 13:31:00,53.4,53.1,29.26,WSW,248,2.3,0.0,99,0.00,CLR,,0.13,WeatherDisplay:10.37,2013-01-18 11:31:00,
2013-01-18 13:33:00,53.4,53.1,29.26,WSW,248,1.1,0.0,99,0.00,CLR,,0.13,WeatherDisplay:10.37,2013-01-18 11:33:00,
2013-01-18 13:34:00,53.4,53.4,29.26,WSW,248,1.1,1.1,100,0.00,CLR,,0.13,WeatherDisplay:10.37,2013-01-18 11:34:00,
2013-01-18 13:36:00,53.6,53.6,29.26,WSW,248,2.6,2.6,100,0.00,CLR,,0.13,WeatherDisplay:10.37,2013-01-18 11:36:00,
2013-01-18 13:38:00,53.6,53.6,29.26,West,270,3.5,3.5,100,0.00,CLR,,0.13,WeatherDisplay:10.37,2013-01-18 11:38:00,
2013-01-18 13:39:00,53.6,53.6,29.26,WNW,292,3.3,3.3,100,0.00,CLR,,0.13,WeatherDisplay:10.37,2013-01-18 11:39:00,
2013-01-18 13:40:00,53.6,53.6,29.26,WNW,292,2.6,2.6,100,0.00,CLR,,0.13,WeatherDisplay:10.37,2013-01-18 11:40:00,
2013-01-18 13:41:00,53.6,53.6,29.26,WNW,292,2.3,2.3,100,0.00,CLR,,0.13,WeatherDisplay:10.37,2013-01-18 11:41:00,
2013-01-18 13:43:00,54.0,54.0,29.26,WNW,292,1.6,0.0,100,0.00,CLR,,0.13,WeatherDisplay:10.37,2013-01-18 11:43:00,
2013-01-18 13:44:00,54.0,54.0,29.26,WNW,292,1.1,1.1,100,0.00,CLR,,0.13,WeatherDisplay:10.37,2013-01-18 11:44:00,
2013-01-18 13:45:00,54.0,54.0,29.26,WNW,292,1.1,1.1,100,0.00,CLR,,0.13,WeatherDisplay:10.37,2013-01-18 11:45:00,
2013-01-18 13:47:00,54.1,54.1,29.26,WNW,292,1.1,0.0,100,0.00,CLR,,0.13,WeatherDisplay:10.37,2013-01-18 11:47:00,
2013-01-18 13:48:00,54.3,54.3,29.26,WNW,292,1.4,1.4,100,0.00,CLR,,0.13,WeatherDisplay:10.37,2013-01-18 11:48:00,
2013-01-18 13:50:00,54.5,54.5,29.26,NW,315,2.6,0.0,100,0.00,CLR,,0.13,WeatherDisplay:10.37,2013-01-18 11:50:00,
2013-01-18 13:52:00,54.1,54.1,29.26,SSW,202,5.9,5.9,100,0.00,CLR,,0.13,WeatherDisplay:10.37,2013-01-18 11:52:00,
2013-01-18 13:54:00,54.1,53.9,29.26,WSW,248,5.8,5.8,99,0.00,CLR,,0.13,WeatherDisplay:10.37,2013-01-18 11:54:00,
2013-01-18 13:55:00,54.3,54.0,29.26,SSW,202,3.5,3.5,99,0.00,CLR,,0.13,WeatherDisplay:10.37,2013-01-18 11:55:00,
2013-01-18 13:57:00,54.3,53.8,29.26,SSW,202,6.9,6.9,98,0.00,CLR,,0.13,WeatherDisplay:10.37,2013-01-18 11:57:00,
2013-01-18 13:59:00,54.3,53.8,29.26,SSW,202,3.5,3.5,98,0.00,CLR,,0.13,WeatherDisplay:10.37,2013-01-18 11:59:00,
2013-01-18 14:00:00,54.3,53.8,29.26,SSW,202,2.3,2.3,98,0.00,CLR,,0.13,WeatherDisplay:10.37,2013-01-18 12:00:00,
2013-01-18 14:02:00,54.3,53.5,29.26,SSW,202,5.8,5.8,97,0.00,CLR,,0.13,WeatherDisplay:10.37,2013-01-18 12:02:00,
2013-01-18 14:04:00,54.3,53.5,29.26,SSE,158,8.1,8.1,97,0.00,CLR,,0.13,WeatherDisplay:10.37,2013-01-18 12:04:00,
2013-01-18 14:05:00,54.3,53.5,29.26,South,180,8.1,8.1,97,0.00,CLR,,0.13,WeatherDisplay:10.37,2013-01-18 12:05:00,
2013-01-18 14:06:00,54.3,53.2,29.26,SSW,202,8.1,8.1,96,0.00,CLR,,0.13,WeatherDisplay:10.37,2013-01-18 12:06:00,
2013-01-18 14:07:00,54.3,53.2,29.26,SSW,202,7.4,7.4,96,0.00,CLR,,0.13,WeatherDisplay:10.37,2013-01-18 12:07:00,
2013-01-18 14:09:00,54.3,51.1,29.26,SW,225,10.4,10.4,89,0.00,CLR,,0.13,WeatherDisplay:10.37,2013-01-18 12:09:00,
2013-01-18 14:10:00,54.3,50.5,29.26,WSW,248,9.2,9.2,87,0.00,CLR,,0.13,WeatherDisplay:10.37,2013-01-18 12:10:00,
2013-01-18 14:11:00,54.5,50.1,29.26,SSE,158,12.7,12.7,85,0.00,CLR,,0.13,WeatherDisplay:10.37,2013-01-18 12:11:00,
2013-01-18 14:12:00,54.5,49.8,29.26,SW,225,10.4,10.4,84,0.00,CLR,,0.13,WeatherDisplay:10.37,2013-01-18 12:12:00,
2013-01-18 14:14:00,54.5,48.8,29.26,WSW,248,11.5,11.5,81,0.00,CLR,,0.13,WeatherDisplay:10.37,2013-01-18 12:14:00,
2013-01-18 14:15:00,54.5,48.5,29.26,SSW,202,11.5,11.5,80,0.00,CLR,,0.13,WeatherDisplay:10.37,2013-01-18 12:15:00,
2013-01-18 14:16:00,54.5,48.5,29.26,South,180,11.5,11.5,80,0.00,CLR,,0.13,WeatherDisplay:10.37,2013-01-18 12:16:00,
2013-01-18 14:17:00,54.3,48.6,29.26,SSW,202,10.4,10.4,81,0.00,CLR,,0.13,WeatherDisplay:10.37,2013-01-18 12:17:00,
2013-01-18 14:19:00,54.1,49.4,29.26,WSW,248,11.5,11.5,84,0.00,CLR,,0.13,WeatherDisplay:10.37,2013-01-18 12:19:00,
2013-01-18 14:20:00,54.0,49.6,29.26,WSW,248,16.1,16.1,85,0.00,CLR,,0.13,WeatherDisplay:10.37,2013-01-18 12:20:00,
2013-01-18 14:21:00,53.8,49.1,29.26,West,270,19.6,19.6,84,0.00,CLR,,0.13,WeatherDisplay:10.37,2013-01-18 12:21:00,
2013-01-18 14:22:00,53.4,48.1,29.26,WSW,248,15.2,15.2,82,0.00,CLR,,0.13,WeatherDisplay:10.37,2013-01-18 12:22:00,
2013-01-18 14:24:00,53.2,47.9,29.26,WSW,248,15.0,15.0,82,0.00,CLR,,0.13,WeatherDisplay:10.37,2013-01-18 12:24:00,
2013-01-18 14:25:00,53.2,48.2,29.26,West,270,12.7,12.7,83,0.00,CLR,,0.13,WeatherDisplay:10.37,2013-01-18 12:25:00,
2013-01-18 14:26:00,53.1,47.7,29.26,SW,225,12.7,12.7,82,0.00,CLR,,0.13,WeatherDisplay:10.37,2013-01-18 12:26:00,
2013-01-18 14:27:00,52.7,47.4,29.26,SSW,202,13.2,13.2,82,0.00,CLR,,0.13,WeatherDisplay:10.37,2013-01-18 12:27:00,
2013-01-18 14:29:00,52.7,47.7,29.26,WSW,248,13.0,13.0,83,0.00,CLR,,0.13,WeatherDisplay:10.37,2013-01-18 12:29:00,
2013-01-18 14:30:00,52.5,47.8,29.26,SSW,202,17.3,17.3,84,0.00,CLR,,0.13,WeatherDisplay:10.37,2013-01-18 12:30:00,
2013-01-18 14:31:00,52.3,47.6,29.26,SW,225,17.3,17.3,84,0.00,CLR,,0.13,WeatherDisplay:10.37,2013-01-18 12:31:00,
2013-01-18 14:33:00,52.3,47.6,29.26,West,270,12.7,12.7,84,0.00,CLR,,0.13,WeatherDisplay:10.37,2013-01-18 12:33:00,
2013-01-18 14:35:00,52.2,47.8,29.26,WSW,250,8.0,17.0,85,0.00,CLR,,0.13,WeatherDisplay:10.37,2013-01-18 12:35:00,
2013-01-18 14:36:00,52.2,47.8,29.26,WSW,248,15.9,15.9,85,0.00,CLR,,0.13,WeatherDisplay:10.37,2013-01-18 12:36:00,
2013-01-18 14:38:00,52.0,47.3,29.26,WSW,248,9.2,9.2,84,0.00,CLR,,0.13,WeatherDisplay:10.37,2013-01-18 12:38:00,
2013-01-18 14:40:00,52.0,47.6,29.26,WNW,292,10.4,10.4,85,0.00,CLR,,0.13,WeatherDisplay:10.37,2013-01-18 12:40:00,
2013-01-18 14:41:00,52.0,47.9,29.26,WSW,248,11.5,11.5,86,0.00,CLR,,0.13,WeatherDisplay:10.37,2013-01-18 12:41:00,
2013-01-18 14:43:00,52.0,47.9,29.26,SW,225,13.8,13.8,86,0.00,CLR,,0.13,WeatherDisplay:10.37,2013-01-18 12:43:00,
2013-01-18 14:45:00,51.8,47.7,29.26,WNW,292,12.7,12.7,86,0.00,CLR,,0.13,WeatherDisplay:10.37,2013-01-18 12:45:00,
2013-01-18 14:46:00,51.8,47.4,29.26,WNW,292,15.0,15.0,85,0.00,CLR,,0.13,WeatherDisplay:10.37,2013-01-18 12:46:00,
2013-01-18 14:48:00,52.0,47.9,29.26,WSW,248,10.4,10.4,86,0.00,CLR,,0.13,WeatherDisplay:10.37,2013-01-18 12:48:00,
2013-01-18 14:50:00,52.0,47.9,29.26,West,270,6.9,6.9,86,0.00,CLR,,0.13,WeatherDisplay:10.37,2013-01-18 12:50:00,
2013-01-18 14:51:00,52.0,47.9,29.26,WNW,292,6.9,6.9,86,0.00,CLR,,0.13,WeatherDisplay:10.37,2013-01-18 12:51:00,
2013-01-18 14:53:00,52.9,48.8,29.26,WSW,248,11.5,11.5,86,0.00,CLR,,0.13,WeatherDisplay:10.37,2013-01-18 12:53:00,
2013-01-18 14:55:00,53.2,49.2,29.26,NW,315,6.9,6.9,86,0.00,CLR,,0.13,WeatherDisplay:10.37,2013-01-18 12:55:00,
2013-01-18 14:56:00,53.4,49.3,29.26,WNW,292,5.8,5.8,86,0.00,CLR,,0.13,WeatherDisplay:10.37,2013-01-18 12:56:00,
2013-01-18 14:58:00,53.8,49.4,29.26,WNW,292,5.8,5.8,85,0.00,CLR,,0.13,WeatherDisplay:10.37,2013-01-18 12:58:00,
2013-01-18 15:00:00,53.8,49.4,29.26,WNW,292,2.3,2.3,85,0.00,CLR,,0.13,WeatherDisplay:10.37,2013-01-18 13:00:00,
2013-01-18 15:01:00,53.8,49.4,29.26,NNW,338,2.4,2.4,85,0.00,CLR,,0.13,WeatherDisplay:10.37,2013-01-18 13:01:00,
2013-01-18 15:03:00,54.1,50.0,29.24,NW,315,2.4,2.4,86,0.00,CLR,,0.13,WeatherDisplay:10.37,2013-01-18 13:03:00,
2013-01-18 15:05:00,54.1,50.0,29.24,WNW,292,5.6,5.6,86,0.00,CLR,,0.13,WeatherDisplay:10.37,2013-01-18 13:05:00,
2013-01-18 15:06:00,54.3,49.6,29.24,WNW,292,5.8,5.8,84,0.00,CLR,,0.13,WeatherDisplay:10.37,2013-01-18 13:06:00,
2013-01-18 15:07:00,54.5,49.4,29.24,WNW,292,9.2,9.2,83,0.00,CLR,,0.13,WeatherDisplay:10.37,2013-01-18 13:07:00,
2013-01-18 15:08:00,54.5,47.8,29.24,WNW,292,9.2,9.2,78,0.00,CLR,,0.13,WeatherDisplay:10.37,2013-01-18 13:08:00,
2013-01-18 15:10:00,54.3,47.6,29.24,WSW,248,6.9,6.9,78,0.00,CLR,,0.13,WeatherDisplay:10.37,2013-01-18 13:10:00,
2013-01-18 15:11:00,54.3,47.3,29.24,WSW,248,6.9,6.9,77,0.00,CLR,,0.13,WeatherDisplay:10.37,2013-01-18 13:11:00,
2013-01-18 15:12:00,54.3,47.6,29.24,SW,225,3.5,3.5,78,0.00,CLR,,0.13,WeatherDisplay:10.37,2013-01-18 13:12:00,
2013-01-18 15:13:00,54.1,46.4,29.24,WSW,248,6.2,6.2,75,0.00,CLR,,0.13,WeatherDisplay:10.37,2013-01-18 13:13:00,
2013-01-18 15:15:00,54.1,45.7,29.24,SW,225,6.9,6.9,73,0.00,CLR,,0.13,WeatherDisplay:10.37,2013-01-18 13:15:00,
2013-01-18 15:16:00,54.1,46.0,29.24,West,270,6.9,6.9,74,0.00,CLR,,0.13,WeatherDisplay:10.37,2013-01-18 13:16:00,
2013-01-18 15:17:00,54.3,46.9,29.26,South,180,4.6,4.6,76,0.00,CLR,,0.13,WeatherDisplay:10.37,2013-01-18 13:17:00,
2013-01-18 15:19:00,54.3,47.3,29.26,SW,225,4.3,4.3,77,0.00,CLR,,0.13,WeatherDisplay:10.37,2013-01-18 13:19:00,
2013-01-18 15:20:00,54.1,46.7,29.26,SW,225,5.8,5.8,76,0.00,CLR,,0.13,WeatherDisplay:10.37,2013-01-18 13:20:00,
2013-01-18 15:21:00,54.1,46.7,29.26,WSW,248,4.0,4.0,76,0.00,CLR,,0.13,WeatherDisplay:10.37,2013-01-18 13:21:00,
2013-01-18 15:22:00,54.0,46.6,29.26,WSW,248,5.4,5.4,76,0.00,CLR,,0.13,WeatherDisplay:10.37,2013-01-18 13:22:00,
2013-01-18 15:24:00,53.8,45.0,29.26,WSW,248,5.8,5.8,72,0.00,CLR,,0.13,WeatherDisplay:10.37,2013-01-18 13:24:00,
2013-01-18 15:25:00,53.8,45.0,29.26,WSW,248,7.4,7.4,72,0.00,CLR,,0.13,WeatherDisplay:10.37,2013-01-18 13:25:00,
2013-01-18 15:26:00,53.8,44.6,29.26,WSW,248,6.9,6.9,71,0.00,CLR,,0.13,WeatherDisplay:10.37,2013-01-18 13:26:00,
2013-01-18 15:27:00,53.8,45.0,29.26,WSW,248,5.8,5.8,72,0.00,CLR,,0.13,WeatherDisplay:10.37,2013-01-18 13:27:00,
2013-01-18 15:29:00,53.8,45.3,29.26,WSW,248,6.0,6.0,73,0.00,CLR,,0.13,WeatherDisplay:10.37,2013-01-18 13:29:00,
2013-01-18 15:30:00,53.8,45.7,29.26,WSW,248,8.7,8.7,74,0.00,CLR,,0.13,WeatherDisplay:10.37,2013-01-18 13:30:00,
2013-01-18 15:31:00,53.6,45.2,29.26,WSW,248,9.2,9.2,73,0.00,CLR,,0.13,WeatherDisplay:10.37,2013-01-18 13:31:00,
2013-01-18 15:32:00,53.8,45.7,29.26,SSW,202,6.0,6.0,74,0.00,CLR,,0.13,WeatherDisplay:10.37,2013-01-18 13:32:00,
2013-01-18 15:34:00,53.8,45.7,29.26,WSW,248,5.8,5.8,74,0.00,CLR,,0.13,WeatherDisplay:10.37,2013-01-18 13:34:00,
2013-01-18 15:36:00,53.6,45.5,29.26,WSW,248,5.8,5.8,74,0.00,CLR,,0.13,WeatherDisplay:10.37,2013-01-18 13:36:00,
2013-01-18 15:37:00,53.6,45.9,29.26,SW,225,5.8,5.8,75,0.00,CLR,,0.13,WeatherDisplay:10.37,2013-01-18 13:37:00,
2013-01-18 15:38:00,53.6,45.9,29.26,West,270,7.6,7.6,75,0.00,CLR,,0.13,WeatherDisplay:10.37,2013-01-18 13:38:00,
2013-01-18 15:39:00,53.6,45.9,29.26,WNW,292,9.2,9.2,75,0.00,CLR,,0.13,WeatherDisplay:10.37,2013-01-18 13:39:00,
2013-01-18 15:41:00,53.8,46.4,29.26,WSW,248,4.6,4.6,76,0.00,CLR,,0.13,WeatherDisplay:10.37,2013-01-18 13:41:00,
2013-01-18 15:42:00,53.6,46.2,29.26,WSW,248,5.9,5.9,76,0.00,CLR,,0.13,WeatherDisplay:10.37,2013-01-18 13:42:00,
2013-01-18 15:43:00,53.6,46.2,29.26,SW,225,6.9,6.9,76,0.00,CLR,,0.13,WeatherDisplay:10.37,2013-01-18 13:43:00,
2013-01-18 15:44:00,53.6,46.2,29.26,SW,225,4.6,4.6,76,0.00,CLR,,0.13,WeatherDisplay:10.37,2013-01-18 13:44:00,
2013-01-18 15:46:00,53.6,46.6,29.26,SSW,202,4.6,4.6,77,0.00,CLR,,0.13,WeatherDisplay:10.37,2013-01-18 13:46:00,
2013-01-18 15:47:00,53.4,46.4,29.26,SSW,202,4.6,4.6,77,0.00,CLR,,0.13,WeatherDisplay:10.37,2013-01-18 13:47:00,
2013-01-18 15:48:00,53.4,46.7,29.26,WSW,248,3.3,3.3,78,0.00,CLR,,0.13,WeatherDisplay:10.37,2013-01-18 13:48:00,
2013-01-18 15:50:00,53.4,46.7,29.26,WSW,248,4.6,4.6,78,0.00,CLR,,0.13,WeatherDisplay:10.37,2013-01-18 13:50:00,
2013-01-18 15:51:00,53.4,46.7,29.26,SSW,202,2.6,2.6,78,0.00,CLR,,0.13,WeatherDisplay:10.37,2013-01-18 13:51:00,
2013-01-18 15:52:00,53.4,47.1,29.26,WSW,248,3.5,3.5,79,0.00,CLR,,0.13,WeatherDisplay:10.37,2013-01-18 13:52:00,
2013-01-18 15:53:00,53.2,46.6,29.26,WSW,248,5.8,5.8,78,0.00,CLR,,0.13,WeatherDisplay:10.37,2013-01-18 13:53:00,
2013-01-18 15:55:00,53.2,46.6,29.26,SW,235,3.0,6.0,78,0.00,CLR,,0.13,WeatherDisplay:10.37,2013-01-18 13:55:00,
2013-01-18 15:56:00,53.2,46.9,29.26,West,270,5.8,5.8,79,0.00,CLR,,0.13,WeatherDisplay:10.37,2013-01-18 13:56:00,
2013-01-18 15:57:00,53.1,46.7,29.26,SW,225,4.6,4.6,79,0.00,CLR,,0.13,WeatherDisplay:10.37,2013-01-18 13:57:00,
2013-01-18 15:59:00,53.1,46.7,29.26,SSE,158,3.5,3.5,79,0.00,CLR,,0.13,WeatherDisplay:10.37,2013-01-18 13:59:00,
2013-01-18 16:00:00,53.1,46.4,29.26,SSW,202,5.8,5.8,78,0.00,CLR,,0.13,WeatherDisplay:10.37,2013-01-18 14:00:00,
2013-01-18 16:01:00,53.1,44.6,29.26,WSW,248,10.5,10.5,73,0.00,CLR,,0.13,WeatherDisplay:10.37,2013-01-18 14:01:00,
2013-01-18 16:02:00,53.1,41.6,29.26,SSE,158,10.4,10.4,65,0.00,CLR,,0.13,WeatherDisplay:10.37,2013-01-18 14:02:00,
2013-01-18 16:04:00,53.2,39.3,29.26,SSW,202,10.4,10.4,59,0.00,CLR,,0.13,WeatherDisplay:10.37,2013-01-18 14:04:00,
2013-01-18 16:06:00,53.2,36.5,29.26,WSW,248,15.0,15.0,53,0.00,CLR,,0.13,WeatherDisplay:10.37,2013-01-18 14:06:00,
2013-01-18 16:07:00,53.4,36.2,29.26,WSW,248,12.7,12.7,52,0.00,CLR,,0.13,WeatherDisplay:10.37,2013-01-18 14:07:00,
2013-01-18 16:09:00,53.4,36.7,29.26,WSW,248,6.9,6.9,53,0.00,CLR,,0.13,WeatherDisplay:10.37,2013-01-18 14:09:00,
2013-01-18 16:11:00,53.6,35.9,29.26,SW,225,8.1,8.1,51,0.00,CLR,,0.13,WeatherDisplay:10.37,2013-01-18 14:11:00,
2013-01-18 16:12:00,53.6,36.4,29.26,SW,225,5.8,5.8,52,0.00,CLR,,0.13,WeatherDisplay:10.37,2013-01-18 14:12:00,
2013-01-18 16:14:00,53.6,36.9,29.26,South,180,5.8,5.8,53,0.00,CLR,,0.13,WeatherDisplay:10.37,2013-01-18 14:14:00,
2013-01-18 16:16:00,53.6,36.4,29.26,West,270,12.7,12.7,52,0.00,CLR,,0.13,WeatherDisplay:10.37,2013-01-18 14:16:00,
2013-01-18 16:17:00,53.6,36.4,29.26,South,180,10.4,10.4,52,0.00,CLR,,0.13,WeatherDisplay:10.37,2013-01-18 14:17:00,
2013-01-18 16:18:00,53.6,36.4,29.26,South,180,10.4,10.4,52,0.00,CLR,,0.13,WeatherDisplay:10.37,2013-01-18 14:18:00,
2013-01-18 16:19:00,54.0,36.7,29.26,SSW,202,10.5,10.5,52,0.00,CLR,,0.13,WeatherDisplay:10.37,2013-01-18 14:19:00,
2013-01-18 16:21:00,54.0,35.7,29.26,SW,225,9.2,9.2,50,0.00,CLR,,0.13,WeatherDisplay:10.37,2013-01-18 14:21:00,
2013-01-18 16:22:00,54.0,35.7,29.26,SSE,158,9.2,9.2,50,0.00,CLR,,0.13,WeatherDisplay:10.37,2013-01-18 14:22:00,
2013-01-18 16:23:00,54.0,35.7,29.26,SSE,158,9.2,9.2,50,0.00,CLR,,0.13,WeatherDisplay:10.37,2013-01-18 14:23:00,
2013-01-18 16:24:00,54.0,35.7,29.26,SSE,158,9.2,9.2,50,0.00,CLR,,0.13,WeatherDisplay:10.37,2013-01-18 14:24:00,
2013-01-18 16:27:00,54.0,35.7,29.26,SSE,158,9.2,9.2,50,0.00,CLR,,0.13,WeatherDisplay:10.37,2013-01-18 14:27:00,
2013-01-18 16:28:00,54.0,35.7,29.26,SSE,158,9.2,9.2,50,0.00,CLR,,0.13,WeatherDisplay:10.37,2013-01-18 14:28:00,
2013-01-18 16:29:00,54.0,35.7,29.26,SSE,158,9.2,9.2,50,0.00,CLR,,0.13,WeatherDisplay:10.37,2013-01-18 14:29:00,
2013-01-18 16:32:00,54.0,35.7,29.26,SSE,158,9.2,9.2,50,0.00,CLR,,0.13,WeatherDisplay:10.37,2013-01-18 14:32:00,
2013-01-18 16:33:00,54.0,35.7,29.26,SSE,158,9.2,9.2,50,0.00,CLR,,0.13,WeatherDisplay:10.37,2013-01-18 14:33:00,
2013-01-18 16:34:00,54.0,35.7,29.26,SSE,158,9.2,9.2,50,0.00,CLR,,0.13,WeatherDisplay:10.37,2013-01-18 14:34:00,
2013-01-18 16:37:00,54.0,35.7,29.26,SSE,158,9.2,9.2,50,0.00,CLR,,0.13,WeatherDisplay:10.37,2013-01-18 14:37:00,
2013-01-18 16:38:00,54.0,35.7,29.26,SSE,158,9.2,9.2,50,0.00,CLR,,0.13,WeatherDisplay:10.37,2013-01-18 14:38:00,
2013-01-18 16:39:00,54.0,35.7,29.26,SSE,158,9.2,9.2,50,0.00,CLR,,0.13,WeatherDisplay:10.37,2013-01-18 14:39:00,
2013-01-18 16:43:00,54.0,35.7,29.26,SSE,158,9.2,9.2,50,0.00,CLR,,0.13,WeatherDisplay:10.37,2013-01-18 14:43:00,
2013-01-18 16:44:00,54.0,35.7,29.26,SSE,158,9.2,9.2,50,0.00,CLR,,0.13,WeatherDisplay:10.37,2013-01-18 14:44:00,
2013-01-18 16:48:00,54.0,35.7,29.26,SSE,158,9.2,9.2,50,0.00,CLR,,0.13,WeatherDisplay:10.37,2013-01-18 14:48:00,
2013-01-18 16:49:00,54.0,35.7,29.26,SSE,158,9.2,9.2,50,0.00,CLR,,0.13,WeatherDisplay:10.37,2013-01-18 14:49:00,
2013-01-18 16:53:00,54.0,35.7,29.26,SSE,158,9.2,9.2,50,0.00,CLR,,0.13,WeatherDisplay:10.37,2013-01-18 14:53:00,
2013-01-18 16:54:00,54.0,35.7,29.26,SSE,158,9.2,9.2,50,0.00,CLR,,0.13,WeatherDisplay:10.37,2013-01-18 14:54:00,
2013-01-18 16:55:00,54.0,35.7,29.26,SSE,158,9.2,9.2,50,0.00,CLR,,0.13,WeatherDisplay:10.37,2013-01-18 14:55:00,
2013-01-18 16:58:00,54.0,35.7,29.26,SSE,158,9.2,9.2,50,0.00,CLR,,0.13,WeatherDisplay:10.37,2013-01-18 14:58:00,
2013-01-18 16:59:00,54.0,35.7,29.26,SSE,158,9.2,9.2,50,0.00,CLR,,0.13,WeatherDisplay:10.37,2013-01-18 14:59:00,
2013-01-18 17:00:00,54.0,35.7,29.26,SSE,158,9.2,9.2,50,0.00,CLR,,0.13,WeatherDisplay:10.37,2013-01-18 15:00:00,
2013-01-18 17:03:00,54.0,35.7,29.26,SSE,158,9.2,9.2,50,0.00,CLR,,0.13,WeatherDisplay:10.37,2013-01-18 15:03:00,
2013-01-18 17:04:00,54.0,35.7,29.26,SSE,158,9.2,9.2,50,0.00,CLR,,0.13,WeatherDisplay:10.37,2013-01-18 15:04:00,
2013-01-18 17:05:00,54.0,35.7,29.26,SSE,158,9.2,9.2,50,0.00,CLR,,0.13,WeatherDisplay:10.37,2013-01-18 15:05:00,
2013-01-18 17:08:00,54.0,35.7,29.26,SSE,158,9.2,9.2,50,0.00,CLR,,0.13,WeatherDisplay:10.37,2013-01-18 15:08:00,
2013-01-18 17:09:00,54.0,35.7,29.26,SSE,158,9.2,9.2,50,0.00,CLR,,0.13,WeatherDisplay:10.37,2013-01-18 15:09:00,
2013-01-18 17:10:00,54.0,35.7,29.26,SSE,158,9.2,9.2,50,0.00,CLR,,0.13,WeatherDisplay:10.37,2013-01-18 15:10:00,
2013-01-18 17:13:00,54.0,35.7,29.26,SSE,158,9.2,9.2,50,0.00,CLR,,0.13,WeatherDisplay:10.37,2013-01-18 15:13:00,
2013-01-18 17:15:00,54.0,35.7,29.26,SSE,158,7.0,9.0,50,0.00,CLR,,0.13,WeatherDisplay:10.37,2013-01-18 15:15:00,
2013-01-18 17:16:00,54.0,35.7,29.26,SSE,158,9.2,9.2,50,0.00,CLR,,0.13,WeatherDisplay:10.37,2013-01-18 15:16:00,
2013-01-18 17:18:00,54.0,35.7,29.26,SSE,158,9.2,9.2,50,0.00,CLR,,0.13,WeatherDisplay:10.37,2013-01-18 15:18:00,
2013-01-18 17:20:00,54.0,35.7,29.26,SSE,158,9.2,9.2,50,0.00,CLR,,0.13,WeatherDisplay:10.37,2013-01-18 15:20:00,
2013-01-18 17:21:00,54.0,35.7,29.26,SSE,158,9.2,9.2,50,0.00,CLR,,0.13,WeatherDisplay:10.37,2013-01-18 15:21:00,
2013-01-18 17:23:00,54.0,35.7,29.26,SSE,158,9.2,9.2,50,0.00,CLR,,0.13,WeatherDisplay:10.37,2013-01-18 15:23:00,
2013-01-18 17:25:00,54.0,35.7,29.26,SSE,158,9.2,9.2,50,0.00,CLR,,0.13,WeatherDisplay:10.37,2013-01-18 15:25:00,
2013-01-18 17:26:00,54.0,35.7,29.26,SSE,158,9.2,9.2,50,0.00,CLR,,0.13,WeatherDisplay:10.37,2013-01-18 15:26:00,
2013-01-18 17:28:00,54.0,35.7,29.26,SSE,158,9.2,9.2,50,0.00,CLR,,0.13,WeatherDisplay:10.37,2013-01-18 15:28:00,
2013-01-18 17:30:00,54.0,35.7,29.26,SSE,158,9.2,9.2,50,0.00,CLR,,0.13,WeatherDisplay:10.37,2013-01-18 15:30:00,
2013-01-18 17:31:00,54.0,35.7,29.26,SSE,158,9.2,9.2,50,0.00,CLR,,0.13,WeatherDisplay:10.37,2013-01-18 15:31:00,
2013-01-18 17:33:00,54.0,35.7,29.26,SSE,158,9.2,9.2,50,0.00,CLR,,0.13,WeatherDisplay:10.37,2013-01-18 15:33:00,
2013-01-18 17:35:00,54.0,35.7,29.26,SSE,158,9.2,9.2,50,0.00,CLR,,0.13,WeatherDisplay:10.37,2013-01-18 15:35:00,
2013-01-18 17:36:00,54.0,35.7,29.26,SSE,158,9.2,9.2,50,0.00,CLR,,0.13,WeatherDisplay:10.37,2013-01-18 15:36:00,
2013-01-18 17:38:00,54.0,35.7,29.26,SSE,158,9.2,9.2,50,0.00,CLR,,0.13,WeatherDisplay:10.37,2013-01-18 15:38:00,
2013-01-18 17:40:00,54.0,35.7,29.26,SSE,158,9.2,9.2,50,0.00,CLR,,0.13,WeatherDisplay:10.37,2013-01-18 15:40:00,
2013-01-18 17:41:00,54.0,35.7,29.26,SSE,158,9.2,9.2,50,0.00,CLR,,0.13,WeatherDisplay:10.37,2013-01-18 15:41:00,
2013-01-18 17:43:00,54.0,35.7,29.26,SSE,158,9.2,9.2,50,0.00,CLR,,0.13,WeatherDisplay:10.37,2013-01-18 15:43:00,
2013-01-18 17:45:00,54.0,35.7,29.26,SSE,158,9.2,9.2,50,0.00,CLR,,0.13,WeatherDisplay:10.37,2013-01-18 15:45:00,
2013-01-18 17:46:00,54.0,35.7,29.26,SSE,158,9.2,9.2,50,0.00,CLR,,0.13,WeatherDisplay:10.37,2013-01-18 15:46:00,
2013-01-18 17:49:00,54.0,35.7,29.26,SSE,158,9.2,9.2,50,0.00,CLR,,0.13,WeatherDisplay:10.37,2013-01-18 15:49:00,
2013-01-18 17:50:00,54.0,35.7,29.26,SSE,158,9.2,9.2,50,0.00,CLR,,0.13,WeatherDisplay:10.37,2013-01-18 15:50:00,
2013-01-18 17:51:00,54.0,35.7,29.26,SSE,158,9.2,9.2,50,0.00,CLR,,0.13,WeatherDisplay:10.37,2013-01-18 15:51:00,
2013-01-18 17:54:00,54.0,35.7,29.26,SSE,158,9.2,9.2,50,0.00,CLR,,0.13,WeatherDisplay:10.37,2013-01-18 15:54:00,
2013-01-18 17:56:00,54.0,35.7,29.26,SSE,158,9.2,9.2,50,0.00,CLR,,0.13,WeatherDisplay:10.37,2013-01-18 15:56:00,
2013-01-18 17:59:00,54.0,35.7,29.26,SSE,158,9.2,9.2,50,0.00,CLR,,0.13,WeatherDisplay:10.37,2013-01-18 15:59:00,
2013-01-18 18:01:00,54.0,35.7,29.26,SSE,158,9.2,9.2,50,0.00,CLR,,0.13,WeatherDisplay:10.37,2013-01-18 16:01:00,
2013-01-18 18:02:00,54.0,35.7,29.26,SSE,158,9.2,9.2,50,0.00,CLR,,0.13,WeatherDisplay:10.37,2013-01-18 16:02:00,
2013-01-18 18:04:00,54.0,35.7,29.26,SSE,158,9.2,9.2,50,0.00,CLR,,0.13,WeatherDisplay:10.37,2013-01-18 16:04:00,
2013-01-18 18:06:00,54.0,35.7,29.26,SSE,158,9.2,9.2,50,0.00,CLR,,0.13,WeatherDisplay:10.37,2013-01-18 16:06:00,
2013-01-18 18:07:00,54.0,35.7,29.26,SSE,158,9.2,9.2,50,0.00,CLR,,0.13,WeatherDisplay:10.37,2013-01-18 16:07:00,
2013-01-18 18:09:00,54.0,35.7,29.26,SSE,158,9.2,9.2,50,0.00,CLR,,0.13,WeatherDisplay:10.37,2013-01-18 16:09:00,
2013-01-18 18:11:00,53.2,35.6,29.26,SSW,202,9.2,9.2,51,0.00,CLR,,0.13,WeatherDisplay:10.37,2013-01-18 16:11:00,
2013-01-18 18:12:00,53.2,35.1,29.26,SSW,202,6.9,6.9,50,0.00,CLR,,0.13,WeatherDisplay:10.37,2013-01-18 16:12:00,
2013-01-18 18:14:00,53.2,35.1,29.26,SSW,202,13.0,13.0,50,0.00,CLR,,0.13,WeatherDisplay:10.37,2013-01-18 16:14:00,
2013-01-18 18:16:00,53.2,35.1,29.26,SSW,202,8.1,8.1,50,0.00,CLR,,0.13,WeatherDisplay:10.37,2013-01-18 16:16:00,
2013-01-18 18:18:00,53.2,35.1,29.26,South,180,4.6,4.6,50,0.00,CLR,,0.13,WeatherDisplay:10.37,2013-01-18 16:18:00,
2013-01-18 18:19:00,53.2,35.1,29.26,South,180,8.1,8.1,50,0.00,CLR,,0.13,WeatherDisplay:10.37,2013-01-18 16:19:00,
2013-01-18 18:21:00,53.2,35.1,29.26,South,180,12.7,12.7,50,0.00,CLR,,0.13,WeatherDisplay:10.37,2013-01-18 16:21:00,
2013-01-18 18:23:00,53.4,34.7,29.26,South,180,9.2,9.2,49,0.00,CLR,,0.13,WeatherDisplay:10.37,2013-01-18 16:23:00,
2013-01-18 18:24:00,53.4,34.7,29.26,SSE,158,12.7,12.7,49,0.00,CLR,,0.13,WeatherDisplay:10.37,2013-01-18 16:24:00,
2013-01-18 18:26:00,53.4,34.7,29.26,WSW,248,6.9,6.9,49,0.00,CLR,,0.13,WeatherDisplay:10.37,2013-01-18 16:26:00,
2013-01-18 18:27:00,53.4,34.7,29.26,South,180,6.2,6.2,49,0.00,CLR,,0.13,WeatherDisplay:10.37,2013-01-18 16:27:00,
2013-01-18 18:29:00,53.4,34.2,29.26,West,270,10.4,10.4,48,0.00,CLR,,0.13,WeatherDisplay:10.37,2013-01-18 16:29:00,
2013-01-18 18:31:00,53.4,34.2,29.26,SSE,158,11.5,11.5,48,0.00,CLR,,0.13,WeatherDisplay:10.37,2013-01-18 16:31:00,
2013-01-18 18:32:00,53.4,34.2,29.26,SSW,202,11.5,11.5,48,0.00,CLR,,0.13,WeatherDisplay:10.37,2013-01-18 16:32:00,
2013-01-18 18:34:00,53.4,34.7,29.26,South,180,9.2,9.2,49,0.00,CLR,,0.13,WeatherDisplay:10.37,2013-01-18 16:34:00,
2013-01-18 18:36:00,53.4,34.7,29.26,SSW,202,5.8,5.8,49,0.00,CLR,,0.13,WeatherDisplay:10.37,2013-01-18 16:36:00,
2013-01-18 18:37:00,53.4,34.7,29.26,SSW,202,7.4,7.4,49,0.00,CLR,,0.13,WeatherDisplay:10.37,2013-01-18 16:37:00,
2013-01-18 18:39:00,53.2,34.6,29.26,SSE,158,9.2,9.2,49,0.00,CLR,,0.13,WeatherDisplay:10.37,2013-01-18 16:39:00,
2013-01-18 18:41:00,53.2,35.1,29.26,South,180,5.8,5.8,50,0.00,CLR,,0.13,WeatherDisplay:10.37,2013-01-18 16:41:00,
2013-01-18 18:42:00,53.2,35.1,29.26,SSW,202,6.2,6.2,50,0.00,CLR,,0.13,WeatherDisplay:10.37,2013-01-18 16:42:00,
2013-01-18 18:44:00,53.2,35.1,29.26,WSW,248,10.4,10.4,50,0.00,CLR,,0.13,WeatherDisplay:10.37,2013-01-18 16:44:00,
2013-01-18 18:45:00,53.2,35.1,29.26,SSW,202,5.9,5.9,50,0.00,CLR,,0.13,WeatherDisplay:10.37,2013-01-18 16:45:00,
2013-01-18 18:47:00,53.2,35.1,29.26,SSW,202,5.8,5.8,50,0.00,CLR,,0.13,WeatherDisplay:10.37,2013-01-18 16:47:00,
2013-01-18 18:50:00,53.2,35.1,29.26,SSW,202,5.8,5.8,50,0.00,CLR,,0.13,WeatherDisplay:10.37,2013-01-18 16:50:00,
2013-01-18 18:52:00,53.2,35.1,29.26,SSW,202,6.9,6.9,50,0.00,CLR,,0.13,WeatherDisplay:10.37,2013-01-18 16:52:00,
2013-01-18 18:55:00,53.2,35.1,29.26,SSW,202,5.8,5.8,50,0.00,CLR,,0.13,WeatherDisplay:10.37,2013-01-18 16:55:00,
2013-01-18 18:57:00,53.2,35.1,29.26,SSW,202,6.9,6.9,50,0.00,CLR,,0.13,WeatherDisplay:10.37,2013-01-18 16:57:00,
2013-01-18 19:00:00,53.2,34.6,29.26,SW,225,6.9,6.9,49,0.00,CLR,,0.13,WeatherDisplay:10.37,2013-01-18 17:00:00,
2013-01-18 19:02:00,53.2,34.6,29.26,South,180,5.8,5.8,49,0.00,CLR,,0.13,WeatherDisplay:10.37,2013-01-18 17:02:00,
2013-01-18 19:05:00,53.2,34.6,29.26,SSW,202,6.9,6.9,49,0.00,CLR,,0.13,WeatherDisplay:10.37,2013-01-18 17:05:00,
2013-01-18 19:06:00,53.2,34.6,29.26,SSW,202,6.9,6.9,49,0.00,CLR,,0.13,WeatherDisplay:10.37,2013-01-18 17:06:00,
2013-01-18 19:07:00,53.2,35.1,29.26,SSW,202,5.8,5.8,50,0.00,CLR,,0.13,WeatherDisplay:10.37,2013-01-18 17:07:00,
2013-01-18 19:10:00,53.2,34.6,29.26,SW,225,8.1,8.1,49,0.00,CLR,,0.13,WeatherDisplay:10.37,2013-01-18 17:10:00,
2013-01-18 19:11:00,53.2,34.6,29.26,South,180,5.8,5.8,49,0.00,CLR,,0.13,WeatherDisplay:10.37,2013-01-18 17:11:00,
2013-01-18 19:12:00,53.2,35.1,29.26,SSW,202,5.4,5.4,50,0.00,CLR,,0.13,WeatherDisplay:10.37,2013-01-18 17:12:00,
2013-01-18 19:13:00,53.2,35.1,29.26,SSW,202,5.9,5.9,50,0.00,CLR,,0.13,WeatherDisplay:10.37,2013-01-18 17:13:00,
2013-01-18 19:15:00,53.2,35.1,29.26,South,180,3.8,3.8,50,0.00,CLR,,0.13,WeatherDisplay:10.37,2013-01-18 17:15:00,
2013-01-18 19:16:00,53.2,35.1,29.26,SW,225,5.8,5.8,50,0.00,CLR,,0.13,WeatherDisplay:10.37,2013-01-18 17:16:00,
2013-01-18 19:17:00,53.2,35.1,29.26,SSW,202,5.8,5.8,50,0.00,CLR,,0.13,WeatherDisplay:10.37,2013-01-18 17:17:00,
2013-01-18 19:18:00,53.2,35.1,29.26,SSW,202,5.8,5.8,50,0.00,CLR,,0.13,WeatherDisplay:10.37,2013-01-18 17:18:00,
2013-01-18 19:20:00,53.2,35.6,29.26,WSW,248,7.4,7.4,51,0.00,CLR,,0.13,WeatherDisplay:10.37,2013-01-18 17:20:00,
2013-01-18 19:21:00,53.2,35.6,29.26,South,180,6.9,6.9,51,0.00,CLR,,0.13,WeatherDisplay:10.37,2013-01-18 17:21:00,
2013-01-18 19:22:00,53.2,35.6,29.26,South,180,6.9,6.9,51,0.00,CLR,,0.13,WeatherDisplay:10.37,2013-01-18 17:22:00,
2013-01-18 19:23:00,53.2,35.6,29.26,South,180,7.4,7.4,51,0.00,CLR,,0.13,WeatherDisplay:10.37,2013-01-18 17:23:00,
2013-01-18 19:25:00,53.2,35.6,29.26,SSW,202,5.8,5.8,51,0.00,CLR,,0.13,WeatherDisplay:10.37,2013-01-18 17:25:00,
2013-01-18 19:26:00,53.2,35.6,29.26,SSW,202,5.8,5.8,51,0.00,CLR,,0.13,WeatherDisplay:10.37,2013-01-18 17:26:00,
2013-01-18 19:28:00,53.2,36.1,29.26,SSE,158,3.6,3.6,52,0.00,CLR,,0.13,WeatherDisplay:10.37,2013-01-18 17:28:00,
2013-01-18 19:30:00,53.2,36.5,29.26,SSW,202,5.8,5.8,53,0.00,CLR,,0.13,WeatherDisplay:10.37,2013-01-18 17:30:00,
2013-01-18 19:31:00,53.2,36.5,29.26,SSW,202,4.6,4.6,53,0.00,CLR,,0.13,WeatherDisplay:10.37,2013-01-18 17:31:00,
2013-01-18 19:33:00,53.2,36.5,29.26,SW,225,10.0,10.0,53,0.00,CLR,,0.13,WeatherDisplay:10.37,2013-01-18 17:33:00,
2013-01-18 19:35:00,53.4,35.7,29.26,SSW,202,11.5,11.5,51,0.00,CLR,,0.13,WeatherDisplay:10.37,2013-01-18 17:35:00,
2013-01-18 19:36:00,53.4,36.2,29.26,SSE,158,6.2,6.2,52,0.00,CLR,,0.13,WeatherDisplay:10.37,2013-01-18 17:36:00,
2013-01-18 19:38:00,53.4,35.7,29.26,SSW,202,12.7,12.7,51,0.00,CLR,,0.13,WeatherDisplay:10.37,2013-01-18 17:38:00,
2013-01-18 19:41:00,53.4,34.7,29.26,SSW,202,10.5,10.5,49,0.00,CLR,,0.13,WeatherDisplay:10.37,2013-01-18 17:41:00,
2013-01-18 19:43:00,53.6,34.4,29.26,SSW,202,5.9,5.9,48,0.00,CLR,,0.13,WeatherDisplay:10.37,2013-01-18 17:43:00,
2013-01-18 19:46:00,53.6,34.4,29.26,South,180,11.5,11.5,48,0.00,CLR,,0.13,WeatherDisplay:10.37,2013-01-18 17:46:00,
2013-01-18 19:47:00,53.6,34.4,29.26,South,180,11.5,11.5,48,0.00,CLR,,0.13,WeatherDisplay:10.37,2013-01-18 17:47:00,
2013-01-18 19:48:00,53.6,34.4,29.26,WSW,248,13.8,13.8,48,0.00,CLR,,0.13,WeatherDisplay:10.37,2013-01-18 17:48:00,
2013-01-18 19:51:00,52.7,37.4,29.26,WSW,248,13.8,13.8,56,0.00,CLR,,0.13,WeatherDisplay:10.37,2013-01-18 17:51:00,
2013-01-18 19:53:00,52.0,37.7,29.26,SW,225,13.8,13.8,58,0.00,CLR,,0.13,WeatherDisplay:10.37,2013-01-18 17:53:00,
2013-01-18 19:56:00,50.9,38.7,29.26,WSW,248,16.1,16.1,63,0.00,CLR,,0.13,WeatherDisplay:10.37,2013-01-18 17:56:00,
2013-01-18 19:58:00,50.2,40.0,29.26,NW,315,11.5,11.5,68,0.00,CLR,,0.13,WeatherDisplay:10.37,2013-01-18 17:58:00,
2013-01-18 20:01:00,49.8,41.9,29.26,WSW,248,12.1,12.1,74,0.00,CLR,,0.13,WeatherDisplay:10.37,2013-01-18 18:01:00,
2013-01-18 20:03:00,48.9,44.0,29.32,WSW,248,17.3,17.3,83,0.00,CLR,,0.13,WeatherDisplay:10.37,2013-01-18 18:03:00,
2013-01-18 20:06:00,48.7,44.7,29.32,WNW,292,19.6,19.6,86,0.00,CLR,,0.13,WeatherDisplay:10.37,2013-01-18 18:06:00,
2013-01-18 20:08:00,48.7,45.0,29.32,WSW,248,15.4,15.4,87,0.00,CLR,,0.13,WeatherDisplay:10.37,2013-01-18 18:08:00,
2013-01-18 20:11:00,48.6,45.8,29.32,West,270,18.4,18.4,90,0.00,CLR,,0.13,WeatherDisplay:10.37,2013-01-18 18:11:00,
2013-01-18 20:13:00,48.4,45.6,29.32,West,270,16.1,16.1,90,0.00,CLR,,0.13,WeatherDisplay:10.37,2013-01-18 18:13:00,
2013-01-18 20:16:00,48.2,44.2,29.32,SSW,202,5.8,5.8,86,0.00,CLR,,0.13,WeatherDisplay:10.37,2013-01-18 18:16:00,
2013-01-18 20:18:00,48.0,44.0,29.32,SSW,202,5.8,5.8,86,0.00,CLR,,0.13,WeatherDisplay:10.37,2013-01-18 18:18:00,
2013-01-18 20:21:00,48.0,44.0,29.32,SW,225,5.8,5.8,86,0.00,CLR,,0.13,WeatherDisplay:10.37,2013-01-18 18:21:00,
2013-01-18 20:23:00,48.0,43.7,29.32,SSW,202,4.6,4.6,85,0.00,CLR,,0.13,WeatherDisplay:10.37,2013-01-18 18:23:00,
2013-01-18 20:26:00,48.2,43.6,29.32,WSW,248,5.8,5.8,84,0.00,CLR,,0.13,WeatherDisplay:10.37,2013-01-18 18:26:00,
2013-01-18 20:28:00,48.2,43.6,29.32,South,180,6.4,6.4,84,0.00,CLR,,0.13,WeatherDisplay:10.37,2013-01-18 18:28:00,
2013-01-18 20:32:00,48.4,43.5,29.32,WSW,248,6.0,6.0,83,0.00,CLR,,0.13,WeatherDisplay:10.37,2013-01-18 18:32:00,
2013-01-18 20:33:00,48.4,43.5,29.32,WSW,248,5.8,5.8,83,0.00,CLR,,0.13,WeatherDisplay:10.37,2013-01-18 18:33:00,
2013-01-18 20:34:00,48.6,43.6,29.32,SSW,202,7.1,7.1,83,0.00,CLR,,0.13,WeatherDisplay:10.37,2013-01-18 18:34:00,
2013-01-18 20:37:00,48.6,43.3,29.32,West,270,11.8,11.8,82,0.00,CLR,,0.13,WeatherDisplay:10.37,2013-01-18 18:37:00,
2013-01-18 20:38:00,48.7,40.8,29.32,WSW,248,11.5,11.5,74,0.00,CLR,,0.13,WeatherDisplay:10.37,2013-01-18 18:38:00,
2013-01-18 20:39:00,48.9,40.6,29.32,WSW,248,11.5,11.5,73,0.00,CLR,,0.13,WeatherDisplay:10.37,2013-01-18 18:39:00,
2013-01-18 20:42:00,49.3,39.2,29.32,SSW,202,11.5,11.5,68,0.00,CLR,,0.13,WeatherDisplay:10.37,2013-01-18 18:42:00,
2013-01-18 20:43:00,49.3,39.5,29.32,WSW,248,10.0,10.0,69,0.00,CLR,,0.13,WeatherDisplay:10.37,2013-01-18 18:43:00,
2013-01-18 20:44:00,49.3,39.5,29.32,WSW,248,7.6,7.6,69,0.00,CLR,,0.13,WeatherDisplay:10.37,2013-01-18 18:44:00,
2013-01-18 20:47:00,49.5,39.0,29.32,WSW,248,9.2,9.2,67,0.00,CLR,,0.13,WeatherDisplay:10.37,2013-01-18 18:47:00,
2013-01-18 20:48:00,49.5,39.0,29.32,WSW,248,8.1,8.1,67,0.00,CLR,,0.13,WeatherDisplay:10.37,2013-01-18 18:48:00,
2013-01-18 20:49:00,49.5,39.0,29.32,SW,225,12.5,12.5,67,0.00,CLR,,0.13,WeatherDisplay:10.37,2013-01-18 18:49:00,
2013-01-18 20:50:00,49.5,39.0,29.32,SW,225,9.2,9.2,67,0.00,CLR,,0.13,WeatherDisplay:10.37,2013-01-18 18:50:00,
2013-01-18 20:53:00,49.5,39.0,29.32,WSW,248,8.1,8.1,67,0.00,CLR,,0.13,WeatherDisplay:10.37,2013-01-18 18:53:00,
2013-01-18 20:54:00,49.6,40.3,29.32,SSW,202,11.5,11.5,70,0.00,CLR,,0.13,WeatherDisplay:10.37,2013-01-18 18:54:00,
2013-01-18 20:55:00,49.6,40.3,29.32,WSW,238,7.0,12.0,70,0.00,CLR,,0.13,WeatherDisplay:10.37,2013-01-18 18:55:00,
2013-01-18 20:58:00,49.8,40.1,29.32,SSE,158,10.4,10.4,69,0.00,CLR,,0.13,WeatherDisplay:10.37,2013-01-18 18:58:00,
2013-01-18 20:59:00,49.8,40.1,29.32,WSW,248,10.4,10.4,69,0.00,CLR,,0.13,WeatherDisplay:10.37,2013-01-18 18:59:00,
2013-01-18 21:00:00,50.0,40.2,29.32,WSW,248,11.5,11.5,69,0.00,CLR,,0.13,WeatherDisplay:10.37,2013-01-18 19:00:00,
2013-01-18 21:03:00,50.0,40.6,29.32,WSW,248,9.8,9.8,70,0.00,CLR,,0.13,WeatherDisplay:10.37,2013-01-18 19:03:00,
2013-01-18 21:04:00,50.0,39.1,29.32,SSW,202,11.5,11.5,66,0.00,CLR,,0.13,WeatherDisplay:10.37,2013-01-18 19:04:00,
2013-01-18 21:05:00,50.0,39.1,29.32,WSW,248,7.1,7.1,66,0.00,CLR,,0.13,WeatherDisplay:10.37,2013-01-18 19:05:00,
2013-01-18 21:08:00,50.2,38.1,29.32,WSW,248,10.4,10.4,63,0.00,CLR,,0.13,WeatherDisplay:10.37,2013-01-18 19:08:00,
2013-01-18 21:09:00,50.2,37.7,29.32,WSW,248,8.1,8.1,62,0.00,CLR,,0.13,WeatherDisplay:10.37,2013-01-18 19:09:00,
2013-01-18 21:10:00,50.2,37.7,29.32,WSW,248,11.5,11.5,62,0.00,CLR,,0.13,WeatherDisplay:10.37,2013-01-18 19:10:00,
2013-01-18 21:13:00,50.2,38.1,29.32,West,270,8.1,8.1,63,0.00,CLR,,0.13,WeatherDisplay:10.37,2013-01-18 19:13:00,
2013-01-18 21:14:00,50.2,38.1,29.32,SSW,202,10.4,10.4,63,0.00,CLR,,0.13,WeatherDisplay:10.37,2013-01-18 19:14:00,
2013-01-18 21:16:00,50.2,37.7,29.32,West,270,12.7,12.7,62,0.00,CLR,,0.13,WeatherDisplay:10.37,2013-01-18 19:16:00,
2013-01-18 21:18:00,50.2,37.2,29.32,SSE,158,8.1,9.4,61,0.00,CLR,,0.13,WeatherDisplay:10.37,2013-01-18 19:18:00,
2013-01-18 21:19:00,50.2,37.7,29.32,SW,225,5.8,5.8,62,0.00,CLR,,0.13,WeatherDisplay:10.37,2013-01-18 19:19:00,
2013-01-18 21:21:00,50.0,37.5,29.32,SW,225,8.1,8.1,62,0.00,CLR,,0.13,WeatherDisplay:10.37,2013-01-18 19:21:00,
2013-01-18 21:23:00,50.0,37.5,29.32,WSW,248,4.6,4.6,62,0.00,CLR,,0.13,WeatherDisplay:10.37,2013-01-18 19:23:00,
2013-01-18 21:24:00,50.0,37.5,29.32,SSW,202,6.2,6.2,62,0.00,CLR,,0.13,WeatherDisplay:10.37,2013-01-18 19:24:00,
2013-01-18 21:26:00,49.8,37.3,29.32,WSW,248,10.7,10.7,62,0.00,CLR,,0.13,WeatherDisplay:10.37,2013-01-18 19:26:00,
2013-01-18 21:29:00,49.8,37.7,29.32,SSW,202,9.7,9.7,63,0.00,CLR,,0.13,WeatherDisplay:10.37,2013-01-18 19:29:00,
2013-01-18 21:30:00,49.8,37.7,29.32,West,270,8.1,8.1,63,0.00,CLR,,0.13,WeatherDisplay:10.37,2013-01-18 19:30:00,
2013-01-18 21:31:00,49.8,37.7,29.32,South,180,9.2,9.2,63,0.00,CLR,,0.13,WeatherDisplay:10.37,2013-01-18 19:31:00,
2013-01-18 21:34:00,49.8,38.9,29.29,South,180,6.9,6.9,66,0.00,CLR,,0.13,WeatherDisplay:10.37,2013-01-18 19:34:00,
2013-01-18 21:35:00,49.8,38.9,29.29,South,180,6.9,6.9,66,0.00,CLR,,0.13,WeatherDisplay:10.37,2013-01-18 19:35:00,
2013-01-18 21:36:00,49.6,38.7,29.29,SSW,202,8.1,8.1,66,0.00,CLR,,0.13,WeatherDisplay:10.37,2013-01-18 19:36:00,
2013-01-18 21:39:00,49.6,39.1,29.29,SSW,202,8.1,8.1,67,0.00,CLR,,0.13,WeatherDisplay:10.37,2013-01-18 19:39:00,
2013-01-18 21:40:00,49.6,39.1,29.29,South,180,8.1,8.1,67,0.00,CLR,,0.13,WeatherDisplay:10.37,2013-01-18 19:40:00,
2013-01-18 21:41:00,49.6,39.1,29.29,SSW,202,5.9,5.9,67,0.00,CLR,,0.13,WeatherDisplay:10.37,2013-01-18 19:41:00,
2013-01-18 21:44:00,49.5,39.0,29.29,SSW,202,6.9,6.9,67,0.00,CLR,,0.13,WeatherDisplay:10.37,2013-01-18 19:44:00,
2013-01-18 21:45:00,49.5,39.0,29.29,SW,225,5.4,5.4,67,0.00,CLR,,0.13,WeatherDisplay:10.37,2013-01-18 19:45:00,
2013-01-18 21:47:00,49.5,39.0,29.29,SSW,202,6.9,6.9,67,0.00,CLR,,0.13,WeatherDisplay:10.37,2013-01-18 19:47:00,
2013-01-18 21:49:00,49.3,38.4,29.29,SSW,202,6.9,6.9,66,0.00,CLR,,0.13,WeatherDisplay:10.37,2013-01-18 19:49:00,
2013-01-18 21:50:00,49.3,38.4,29.29,SW,225,5.8,5.8,66,0.00,CLR,,0.13,WeatherDisplay:10.37,2013-01-18 19:50:00,
2013-01-18 21:52:00,49.3,38.8,29.29,SSW,202,5.6,5.6,67,0.00,CLR,,0.13,WeatherDisplay:10.37,2013-01-18 19:52:00,
2013-01-18 21:55:00,49.3,38.8,29.29,SSW,202,3.6,3.6,67,0.00,CLR,,0.13,WeatherDisplay:10.37,2013-01-18 19:55:00,
2013-01-18 21:57:00,49.1,38.2,29.29,WSW,248,9.2,9.2,66,0.00,CLR,,0.13,WeatherDisplay:10.37,2013-01-18 19:57:00,
2013-01-18 22:00:00,49.1,37.8,29.29,SSW,202,6.9,6.9,65,0.00,CLR,,0.13,WeatherDisplay:10.37,2013-01-18 20:00:00,
2013-01-18 22:02:00,49.1,37.4,29.32,South,180,4.6,5.4,64,0.00,CLR,,0.13,WeatherDisplay:10.37,2013-01-18 20:02:00,
2013-01-18 22:05:00,49.1,37.4,29.32,SSW,202,4.0,4.0,64,0.00,CLR,,0.13,WeatherDisplay:10.37,2013-01-18 20:05:00,
2013-01-18 22:06:00,49.1,37.4,29.32,South,180,4.9,4.9,64,0.00,CLR,,0.13,WeatherDisplay:10.37,2013-01-18 20:06:00,
2013-01-18 22:07:00,49.1,37.4,29.32,SW,225,4.6,4.6,64,0.00,CLR,,0.13,WeatherDisplay:10.37,2013-01-18 20:07:00,
2013-01-18 22:10:00,48.9,37.7,29.32,SSW,202,3.5,3.5,65,0.00,CLR,,0.13,WeatherDisplay:10.37,2013-01-18 20:10:00,
2013-01-18 22:11:00,48.9,37.7,29.32,WSW,248,3.5,3.5,65,0.00,CLR,,0.13,WeatherDisplay:10.37,2013-01-18 20:11:00,
2013-01-18 22:12:00,48.9,37.3,29.32,SW,225,5.8,5.8,64,0.00,CLR,,0.13,WeatherDisplay:10.37,2013-01-18 20:12:00,
2013-01-18 22:15:00,49.1,37.4,29.32,South,180,10.4,10.4,64,0.00,CLR,,0.13,WeatherDisplay:10.37,2013-01-18 20:15:00,
2013-01-18 22:16:00,49.1,37.4,29.32,South,180,10.4,10.4,64,0.00,CLR,,0.13,WeatherDisplay:10.37,2013-01-18 20:16:00,
2013-01-18 22:17:00,49.1,37.8,29.32,SSW,202,5.8,5.8,65,0.00,CLR,,0.13,WeatherDisplay:10.37,2013-01-18 20:17:00,
2013-01-18 22:20:00,49.1,37.8,29.32,WSW,248,8.1,8.1,65,0.00,CLR,,0.13,WeatherDisplay:10.37,2013-01-18 20:20:00,
2013-01-18 22:21:00,49.1,37.8,29.32,SSE,158,8.1,8.1,65,0.00,CLR,,0.13,WeatherDisplay:10.37,2013-01-18 20:21:00,
2013-01-18 22:22:00,48.9,37.3,29.32,SSW,202,5.8,5.8,64,0.00,CLR,,0.13,WeatherDisplay:10.37,2013-01-18 20:22:00,
2013-01-18 22:25:00,48.9,37.3,29.32,SSW,202,4.6,4.6,64,0.00,CLR,,0.13,WeatherDisplay:10.37,2013-01-18 20:25:00,
2013-01-18 22:26:00,48.9,37.3,29.32,SW,225,2.4,2.4,64,0.00,CLR,,0.13,WeatherDisplay:10.37,2013-01-18 20:26:00,
2013-01-18 22:28:00,48.9,37.3,29.32,SW,225,5.8,5.8,64,0.00,CLR,,0.13,WeatherDisplay:10.37,2013-01-18 20:28:00,
2013-01-18 22:31:00,48.7,37.1,29.32,SSW,202,8.1,8.1,64,0.00,CLR,,0.13,WeatherDisplay:10.37,2013-01-18 20:31:00,
2013-01-18 22:32:00,48.7,37.1,29.32,SW,225,8.1,8.1,64,0.00,CLR,,0.13,WeatherDisplay:10.37,2013-01-18 20:32:00,
2013-01-18 22:33:00,48.7,36.7,29.32,SSW,202,5.8,5.8,63,0.00,CLR,,0.13,WeatherDisplay:10.37,2013-01-18 20:33:00,
2013-01-18 22:36:00,48.7,36.3,29.32,SW,225,6.9,6.9,62,0.00,CLR,,0.13,WeatherDisplay:10.37,2013-01-18 20:36:00,
2013-01-18 22:37:00,48.7,35.9,29.32,SW,225,5.8,5.8,61,0.00,CLR,,0.13,WeatherDisplay:10.37,2013-01-18 20:37:00,
2013-01-18 22:38:00,48.9,36.1,29.32,SSW,202,5.8,5.8,61,0.00,CLR,,0.13,WeatherDisplay:10.37,2013-01-18 20:38:00,
2013-01-18 22:41:00,48.7,35.9,29.32,South,180,5.8,5.8,61,0.00,CLR,,0.13,WeatherDisplay:10.37,2013-01-18 20:41:00,
2013-01-18 22:42:00,48.7,36.3,29.32,SSW,202,7.4,7.4,62,0.00,CLR,,0.13,WeatherDisplay:10.37,2013-01-18 20:42:00,
2013-01-18 22:43:00,48.7,36.3,29.32,SSW,202,6.9,6.9,62,0.00,CLR,,0.13,WeatherDisplay:10.37,2013-01-18 20:43:00,
2013-01-18 22:46:00,48.9,36.1,29.32,SSW,202,4.6,4.6,61,0.00,CLR,,0.13,WeatherDisplay:10.37,2013-01-18 20:46:00,
2013-01-18 22:47:00,48.9,36.1,29.29,SSW,202,4.6,4.6,61,0.00,CLR,,0.13,WeatherDisplay:10.37,2013-01-18 20:47:00,
2013-01-18 22:48:00,48.9,36.1,29.29,SSW,202,4.6,4.6,61,0.00,CLR,,0.13,WeatherDisplay:10.37,2013-01-18 20:48:00,
2013-01-18 22:51:00,48.9,35.6,29.29,WSW,248,5.8,5.8,60,0.00,CLR,,0.13,WeatherDisplay:10.37,2013-01-18 20:51:00,
2013-01-18 22:52:00,48.9,35.6,29.29,SW,225,6.0,6.0,60,0.00,CLR,,0.13,WeatherDisplay:10.37,2013-01-18 20:52:00,
2013-01-18 22:53:00,48.9,35.6,29.29,SSW,202,5.8,5.8,60,0.00,CLR,,0.13,WeatherDisplay:10.37,2013-01-18 20:53:00,
2013-01-18 22:56:00,49.1,34.9,29.29,WSW,248,9.2,9.2,58,0.00,CLR,,0.13,WeatherDisplay:10.37,2013-01-18 20:56:00,
2013-01-18 22:57:00,49.1,34.9,29.29,WSW,248,9.2,9.2,58,0.00,CLR,,0.13,WeatherDisplay:10.37,2013-01-18 20:57:00,
2013-01-18 22:58:00,49.1,34.9,29.29,WSW,248,8.1,8.1,58,0.00,CLR,,0.13,WeatherDisplay:10.37,2013-01-18 20:58:00,
2013-01-18 23:01:00,49.1,35.4,29.29,SW,225,4.6,4.6,59,0.00,CLR,,0.13,WeatherDisplay:10.37,2013-01-18 21:01:00,
2013-01-18 23:02:00,49.1,35.4,29.32,South,180,5.6,5.6,59,0.00,CLR,,0.13,WeatherDisplay:10.37,2013-01-18 21:02:00,
2013-01-18 23:03:00,49.3,35.5,29.32,WSW,248,3.5,3.6,59,0.00,CLR,,0.13,WeatherDisplay:10.37,2013-01-18 21:03:00,
2013-01-18 23:04:00,49.3,35.5,29.32,WSW,248,5.8,5.8,59,0.00,CLR,,0.13,WeatherDisplay:10.37,2013-01-18 21:04:00,
2013-01-18 23:06:00,49.3,35.5,29.32,SSW,202,6.9,6.9,59,0.00,CLR,,0.13,WeatherDisplay:10.37,2013-01-18 21:06:00,
2013-01-18 23:07:00,49.3,35.1,29.32,SSW,202,8.5,8.5,58,0.00,CLR,,0.13,WeatherDisplay:10.37,2013-01-18 21:07:00,
2013-01-18 23:08:00,49.3,35.1,29.32,SW,225,4.6,4.6,58,0.00,CLR,,0.13,WeatherDisplay:10.37,2013-01-18 21:08:00,
2013-01-18 23:09:00,49.3,35.1,29.32,SSW,202,8.5,8.5,58,0.00,CLR,,0.13,WeatherDisplay:10.37,2013-01-18 21:09:00,
2013-01-18 23:11:00,49.5,34.8,29.32,South,180,5.8,5.8,57,0.00,CLR,,0.13,WeatherDisplay:10.37,2013-01-18 21:11:00,
2013-01-18 23:12:00,49.5,34.8,29.32,WSW,248,5.8,5.8,57,0.00,CLR,,0.13,WeatherDisplay:10.37,2013-01-18 21:12:00,
2013-01-18 23:13:00,49.5,34.8,29.32,WSW,248,5.8,5.8,57,0.00,CLR,,0.13,WeatherDisplay:10.37,2013-01-18 21:13:00,
2013-01-18 23:14:00,49.6,35.0,29.32,WSW,248,7.1,7.1,57,0.00,CLR,,0.13,WeatherDisplay:10.37,2013-01-18 21:14:00,
2013-01-18 23:16:00,49.6,35.0,29.32,SSW,202,6.2,6.2,57,0.00,CLR,,0.13,WeatherDisplay:10.37,2013-01-18 21:16:00,
2013-01-18 23:18:00,49.6,34.6,29.29,SW,225,5.8,5.8,56,0.00,CLR,,0.13,WeatherDisplay:10.37,2013-01-18 21:18:00,
2013-01-18 23:19:00,49.6,34.6,29.29,SSE,158,8.1,8.1,56,0.00,CLR,,0.13,WeatherDisplay:10.37,2013-01-18 21:19:00,
2013-01-18 23:21:00,49.5,34.4,29.29,WSW,248,6.9,6.9,56,0.00,CLR,,0.13,WeatherDisplay:10.37,2013-01-18 21:21:00,
2013-01-18 23:23:00,49.5,34.4,29.29,SW,225,8.7,8.7,56,0.00,CLR,,0.13,WeatherDisplay:10.37,2013-01-18 21:23:00,
2013-01-18 23:24:00,49.6,35.0,29.29,WSW,248,9.2,9.2,57,0.00,CLR,,0.13,WeatherDisplay:10.37,2013-01-18 21:24:00,
2013-01-18 23:26:00,49.6,35.5,29.29,SW,225,10.4,10.4,58,0.00,CLR,,0.13,WeatherDisplay:10.37,2013-01-18 21:26:00,
2013-01-18 23:28:00,49.6,35.5,29.29,WSW,248,8.1,8.1,58,0.00,CLR,,0.13,WeatherDisplay:10.37,2013-01-18 21:28:00,
2013-01-18 23:29:00,49.8,35.6,29.29,WSW,248,11.5,11.5,58,0.00,CLR,,0.13,WeatherDisplay:10.37,2013-01-18 21:29:00,
2013-01-18 23:32:00,49.8,35.6,29.32,WSW,248,8.1,8.1,58,0.00,CLR,,0.13,WeatherDisplay:10.37,2013-01-18 21:32:00,
2013-01-18 23:33:00,49.8,35.6,29.32,South,180,8.1,8.1,58,0.00,CLR,,0.13,WeatherDisplay:10.37,2013-01-18 21:33:00,
2013-01-18 23:34:00,49.8,35.6,29.32,South,180,8.1,8.1,58,0.00,CLR,,0.13,WeatherDisplay:10.37,2013-01-18 21:34:00,
2013-01-18 23:37:00,50.0,35.8,29.32,SSW,202,10.4,10.4,58,0.00,CLR,,0.13,WeatherDisplay:10.37,2013-01-18 21:37:00,
2013-01-18 23:38:00,50.0,35.4,29.32,SSW,202,5.8,6.0,57,0.00,CLR,,0.13,WeatherDisplay:10.37,2013-01-18 21:38:00,
2013-01-18 23:39:00,50.0,35.4,29.32,SSW,202,10.5,10.5,57,0.00,CLR,,0.13,WeatherDisplay:10.37,2013-01-18 21:39:00,
2013-01-18 23:42:00,50.2,35.1,29.32,SW,225,6.9,6.9,56,0.00,CLR,,0.13,WeatherDisplay:10.37,2013-01-18 21:42:00,
2013-01-18 23:43:00,50.2,34.6,29.32,WSW,248,12.7,12.7,55,0.00,CLR,,0.13,WeatherDisplay:10.37,2013-01-18 21:43:00,
2013-01-18 23:44:00,50.2,34.6,29.32,WSW,248,12.7,12.7,55,0.00,CLR,,0.13,WeatherDisplay:10.37,2013-01-18 21:44:00,
2013-01-18 23:47:00,50.2,34.2,29.32,WSW,248,6.4,6.4,54,0.00,CLR,,0.13,WeatherDisplay:10.37,2013-01-18 21:47:00,
2013-01-18 23:48:00,50.2,33.7,29.32,WSW,248,10.4,10.4,53,0.00,CLR,,0.13,WeatherDisplay:10.37,2013-01-18 21:48:00,
2013-01-18 23:49:00,50.2,33.7,29.32,WSW,248,7.1,7.6,53,0.00,CLR,,0.13,WeatherDisplay:10.37,2013-01-18 21:49:00,
2013-01-18 23:52:00,50.2,34.2,29.32,SSW,202,10.7,10.7,54,0.00,CLR,,0.13,WeatherDisplay:10.37,2013-01-18 21:52:00,
2013-01-18 23:53:00,50.2,34.2,29.32,SSE,158,10.4,10.4,54,0.00,CLR,,0.13,WeatherDisplay:10.37,2013-01-18 21:53:00,
2013-01-18 23:54:00,50.2,34.2,29.32,WSW,248,6.0,6.2,54,0.00,CLR,,0.13,WeatherDisplay:10.37,2013-01-18 21:54:00,
2013-01-18 23:57:00,50.2,34.2,29.32,SW,225,10.2,10.2,54,0.00,CLR,,0.13,WeatherDisplay:10.37,2013-01-18 21:57:00,
2013-01-18 23:58:00,50.2,35.1,29.32,SSW,202,10.4,10.4,56,0.00,CLR,,0.13,WeatherDisplay:10.37,2013-01-18 21:58:00,
2013-01-18 23:59:00,50.2,35.1,29.32,SW,225,8.1,8.1,56,0.00,CLR,,0.13,WeatherDisplay:10.37,2013-01-18 21:59:00,